<?xml version="1.0" encoding="UTF-8" standalone="no" ?><gpx xmlns="http://www.topografix.com/GPX/1/1" xmlns:gpxx="http://www.garmin.com/xmlschemas/GpxExtensions/v3" xmlns:wptx1="http://www.garmin.com/xmlschemas/WaypointExtension/v1" xmlns:gpxtpx="http://www.garmin.com/xmlschemas/TrackPointExtension/v1" creator="GuideVTT.com" version="1.1" xmlns:xsi="http://www.w3.org/2001/XMLSchema-instance" xsi:schemaLocation="http://www.topografix.com/GPX/1/1 http://www.topografix.com/GPX/1/1/gpx.xsd http://www.garmin.com/xmlschemas/GpxExtensions/v3 http://www8.garmin.com/xmlschemas/GpxExtensionsv3.xsd http://www.garmin.com/xmlschemas/WaypointExtension/v1 http://www8.garmin.com/xmlschemas/WaypointExtensionv1.xsd http://www.garmin.com/xmlschemas/TrackPointExtension/v1 http://www.garmin.com/xmlschemas/TrackPointExtensionv1.xsd">
<metadata><link href="http://www.garmin.com"><text>Garmin International</text></link><time>2013-06-22T15:13:50Z</time></metadata>
<trk><name>lace_noir_version_3.0.gpx</name><extensions><gpxx:TrackExtension><gpxx:DisplayColor>Cyan</gpxx:DisplayColor></gpxx:TrackExtension></extensions><trkseg>
<trkpt lat="46.714842899454055" lon="7.092086567781704"><ele></ele><time>2015-8-25T3:31:2Z</time></trkpt>
<trkpt lat="46.71379774677516" lon="7.092459346048147"><ele></ele><time>2015-8-25T3:31:5Z</time></trkpt>
<trkpt lat="46.713180752661145" lon="7.09243710544157"><ele></ele><time>2015-8-25T3:31:8Z</time></trkpt>
<trkpt lat="46.712831060984435" lon="7.0923117799047315"><ele></ele><time>2015-8-25T3:31:11Z</time></trkpt>
<trkpt lat="46.711742181294355" lon="7.091519137402469"><ele></ele><time>2015-8-25T3:31:14Z</time></trkpt>
<trkpt lat="46.71084877120705" lon="7.090607229539874"><ele></ele><time>2015-8-25T3:31:17Z</time></trkpt>
<trkpt lat="46.70970284874448" lon="7.088150610277062"><ele></ele><time>2015-8-25T3:31:20Z</time></trkpt>
<trkpt lat="46.70946322813411" lon="7.08732121052005"><ele></ele><time>2015-8-25T3:31:23Z</time></trkpt>
<trkpt lat="46.70928958788344" lon="7.0858617466794875"><ele></ele><time>2015-8-25T3:31:26Z</time></trkpt>
<trkpt lat="46.709318519516714" lon="7.085255485470848"><ele></ele><time>2015-8-25T3:31:29Z</time></trkpt>
<trkpt lat="46.709440318552836" lon="7.084844526766614"><ele></ele><time>2015-8-25T3:31:32Z</time></trkpt>
<trkpt lat="46.70946263223401" lon="7.084074483001631"><ele></ele><time>2015-8-25T3:31:35Z</time></trkpt>
<trkpt lat="46.70893479863311" lon="7.081429215769983"><ele></ele><time>2015-8-25T3:31:38Z</time></trkpt>
<trkpt lat="46.70880178202103" lon="7.081222512003807"><ele></ele><time>2015-8-25T3:31:41Z</time></trkpt>
<trkpt lat="46.70793054802266" lon="7.081882294271874"><ele></ele><time>2015-8-25T3:31:44Z</time></trkpt>
<trkpt lat="46.70624327271516" lon="7.081489607569697"><ele></ele><time>2015-8-25T3:31:47Z</time></trkpt>
<trkpt lat="46.70466284615208" lon="7.082008876243318"><ele></ele><time>2015-8-25T3:31:50Z</time></trkpt>
<trkpt lat="46.70445354847746" lon="7.082037616396458"><ele></ele><time>2015-8-25T3:31:53Z</time></trkpt>
<trkpt lat="46.7043591706839" lon="7.081914565744387"><ele></ele><time>2015-8-25T3:31:56Z</time></trkpt>
<trkpt lat="46.704105568980076" lon="7.08036440581269"><ele></ele><time>2015-8-25T3:31:59Z</time></trkpt>
<trkpt lat="46.70449627267864" lon="7.079431854141593"><ele></ele><time>2015-8-25T3:32:2Z</time></trkpt>
<trkpt lat="46.70461229639033" lon="7.078666676151471"><ele></ele><time>2015-8-25T3:32:5Z</time></trkpt>
<trkpt lat="46.70494297509432" lon="7.078181379743976"><ele></ele><time>2015-8-25T3:32:8Z</time></trkpt>
<trkpt lat="46.705011883554185" lon="7.077795480414804"><ele></ele><time>2015-8-25T3:32:11Z</time></trkpt>
<trkpt lat="46.70499163771246" lon="7.076133684524717"><ele></ele><time>2015-8-25T3:32:14Z</time></trkpt>
<trkpt lat="46.705154849776115" lon="7.0754550937617955"><ele></ele><time>2015-8-25T3:32:17Z</time></trkpt>
<trkpt lat="46.70541654835361" lon="7.074831576679082"><ele></ele><time>2015-8-25T3:32:20Z</time></trkpt>
<trkpt lat="46.70527385862727" lon="7.072473239415581"><ele></ele><time>2015-8-25T3:32:23Z</time></trkpt>
<trkpt lat="46.705316537533804" lon="7.071834121758404"><ele></ele><time>2015-8-25T3:32:26Z</time></trkpt>
<trkpt lat="46.70629870356464" lon="7.069500060975715"><ele></ele><time>2015-8-25T3:32:29Z</time></trkpt>
<trkpt lat="46.706427208706096" lon="7.069069488966253"><ele></ele><time>2015-8-25T3:32:32Z</time></trkpt>
<trkpt lat="46.70638053397177" lon="7.0685251663893665"><ele></ele><time>2015-8-25T3:32:35Z</time></trkpt>
<trkpt lat="46.706298480875745" lon="7.068263647350543"><ele></ele><time>2015-8-25T3:32:38Z</time></trkpt>
<trkpt lat="46.705640256579436" lon="7.067861117724816"><ele></ele><time>2015-8-25T3:32:41Z</time></trkpt>
<trkpt lat="46.70454431303476" lon="7.06807765444481"><ele></ele><time>2015-8-25T3:32:44Z</time></trkpt>
<trkpt lat="46.70435538663979" lon="7.06797010582372"><ele></ele><time>2015-8-25T3:32:47Z</time></trkpt>
<trkpt lat="46.70365669238657" lon="7.066933148446328"><ele></ele><time>2015-8-25T3:32:50Z</time></trkpt>
<trkpt lat="46.70334983317433" lon="7.066780415843059"><ele></ele><time>2015-8-25T3:32:53Z</time></trkpt>
<trkpt lat="46.70249823077852" lon="7.066670824392033"><ele></ele><time>2015-8-25T3:32:56Z</time></trkpt>
<trkpt lat="46.702240827036256" lon="7.066431173827279"><ele></ele><time>2015-8-25T3:32:59Z</time></trkpt>
<trkpt lat="46.701898523994295" lon="7.065774100748492"><ele></ele><time>2015-8-25T3:33:2Z</time></trkpt>
<trkpt lat="46.701689241707896" lon="7.065143353078419"><ele></ele><time>2015-8-25T3:33:5Z</time></trkpt>
<trkpt lat="46.701785981079695" lon="7.064637510090183"><ele></ele><time>2015-8-25T3:33:8Z</time></trkpt>
<trkpt lat="46.70235641152632" lon="7.062944225949503"><ele></ele><time>2015-8-25T3:33:11Z</time></trkpt>
<trkpt lat="46.702414347282144" lon="7.062235623039179"><ele></ele><time>2015-8-25T3:33:14Z</time></trkpt>
<trkpt lat="46.70231955582549" lon="7.0618820701192915"><ele></ele><time>2015-8-25T3:33:17Z</time></trkpt>
<trkpt lat="46.70140313974514" lon="7.0626848450967135"><ele></ele><time>2015-8-25T3:33:20Z</time></trkpt>
<trkpt lat="46.700521098115544" lon="7.063124685540798"><ele></ele><time>2015-8-25T3:33:23Z</time></trkpt>
<trkpt lat="46.698367213003046" lon="7.065795559897713"><ele></ele><time>2015-8-25T3:33:26Z</time></trkpt>
<trkpt lat="46.69786010330194" lon="7.065901483240802"><ele></ele><time>2015-8-25T3:33:29Z</time></trkpt>
<trkpt lat="46.69771534441644" lon="7.0660225110506865"><ele></ele><time>2015-8-25T3:33:32Z</time></trkpt>
<trkpt lat="46.69778465442995" lon="7.06639182077575"><ele></ele><time>2015-8-25T3:33:35Z</time></trkpt>
<trkpt lat="46.69769512170141" lon="7.066976789289169"><ele></ele><time>2015-8-25T3:33:38Z</time></trkpt>
<trkpt lat="46.697406848521226" lon="7.067764255143999"><ele></ele><time>2015-8-25T3:33:41Z</time></trkpt>
<trkpt lat="46.696910035628875" lon="7.068427910566614"><ele></ele><time>2015-8-25T3:33:44Z</time></trkpt>
<trkpt lat="46.696679331660235" lon="7.069848212538314"><ele></ele><time>2015-8-25T3:33:47Z</time></trkpt>
<trkpt lat="46.696186915158584" lon="7.068888713419268"><ele></ele><time>2015-8-25T3:33:50Z</time></trkpt>
<trkpt lat="46.69556046994989" lon="7.067995760258114"><ele></ele><time>2015-8-25T3:33:53Z</time></trkpt>
<trkpt lat="46.69500416596817" lon="7.067772775592718"><ele></ele><time>2015-8-25T3:33:56Z</time></trkpt>
<trkpt lat="46.69395683842322" lon="7.067966096805493"><ele></ele><time>2015-8-25T3:33:59Z</time></trkpt>
<trkpt lat="46.693776456359245" lon="7.068085446583464"><ele></ele><time>2015-8-25T3:34:2Z</time></trkpt>
<trkpt lat="46.69303782181555" lon="7.068869790081169"><ele></ele><time>2015-8-25T3:34:5Z</time></trkpt>
<trkpt lat="46.692419964500566" lon="7.069933591830301"><ele></ele><time>2015-8-25T3:34:8Z</time></trkpt>
<trkpt lat="46.69208778082117" lon="7.070257201407669"><ele></ele><time>2015-8-25T3:34:11Z</time></trkpt>
<trkpt lat="46.690842470855465" lon="7.070499798996442"><ele></ele><time>2015-8-25T3:34:14Z</time></trkpt>
<trkpt lat="46.69038364952672" lon="7.070247146987886"><ele></ele><time>2015-8-25T3:34:17Z</time></trkpt>
<trkpt lat="46.690054331056146" lon="7.0699112687765915"><ele></ele><time>2015-8-25T3:34:20Z</time></trkpt>
<trkpt lat="46.68991603461602" lon="7.0696743897727465"><ele></ele><time>2015-8-25T3:34:23Z</time></trkpt>
<trkpt lat="46.69009710755827" lon="7.068681059224729"><ele></ele><time>2015-8-25T3:34:26Z</time></trkpt>
<trkpt lat="46.68992081398733" lon="7.066004374778235"><ele></ele><time>2015-8-25T3:34:29Z</time></trkpt>
<trkpt lat="46.69012578914306" lon="7.064426910718826"><ele></ele><time>2015-8-25T3:34:32Z</time></trkpt>
<trkpt lat="46.690437038000205" lon="7.063247089048585"><ele></ele><time>2015-8-25T3:34:35Z</time></trkpt>
<trkpt lat="46.690406470033594" lon="7.062130534633341"><ele></ele><time>2015-8-25T3:34:38Z</time></trkpt>
<trkpt lat="46.69030564774888" lon="7.061599955572752"><ele></ele><time>2015-8-25T3:34:41Z</time></trkpt>
<trkpt lat="46.69024647659044" lon="7.061372887094985"><ele></ele><time>2015-8-25T3:34:44Z</time></trkpt>
<trkpt lat="46.6899125521019" lon="7.060866269268724"><ele></ele><time>2015-8-25T3:34:47Z</time></trkpt>
<trkpt lat="46.689531280366175" lon="7.059903338521192"><ele></ele><time>2015-8-25T3:34:50Z</time></trkpt>
<trkpt lat="46.689110425431664" lon="7.05981438668727"><ele></ele><time>2015-8-25T3:34:53Z</time></trkpt>
<trkpt lat="46.68847768219429" lon="7.059425017516497"><ele></ele><time>2015-8-25T3:34:56Z</time></trkpt>
<trkpt lat="46.68835178554401" lon="7.059423754287014"><ele></ele><time>2015-8-25T3:34:59Z</time></trkpt>
<trkpt lat="46.688068972367056" lon="7.059707803562102"><ele></ele><time>2015-8-25T3:35:2Z</time></trkpt>
<trkpt lat="46.68768666871116" lon="7.0598595817449254"><ele></ele><time>2015-8-25T3:35:5Z</time></trkpt>
<trkpt lat="46.687542752809044" lon="7.059776845586509"><ele></ele><time>2015-8-25T3:35:8Z</time></trkpt>
<trkpt lat="46.68744024808336" lon="7.059505770061377"><ele></ele><time>2015-8-25T3:35:11Z</time></trkpt>
<trkpt lat="46.68779037439536" lon="7.058957526436762"><ele></ele><time>2015-8-25T3:35:14Z</time></trkpt>
<trkpt lat="46.6881195721237" lon="7.0572902142200435"><ele></ele><time>2015-8-25T3:35:17Z</time></trkpt>
<trkpt lat="46.68851965684283" lon="7.056654885038564"><ele></ele><time>2015-8-25T3:35:20Z</time></trkpt>
<trkpt lat="46.68941142542986" lon="7.05604162353167"><ele></ele><time>2015-8-25T3:35:23Z</time></trkpt>
<trkpt lat="46.68953791152479" lon="7.055927635665341"><ele></ele><time>2015-8-25T3:35:26Z</time></trkpt>
<trkpt lat="46.689567419759726" lon="7.055765028186908"><ele></ele><time>2015-8-25T3:35:29Z</time></trkpt>
<trkpt lat="46.68939802642845" lon="7.05552663891335"><ele></ele><time>2015-8-25T3:35:32Z</time></trkpt>
<trkpt lat="46.688890248725365" lon="7.055527033978769"><ele></ele><time>2015-8-25T3:35:35Z</time></trkpt>
<trkpt lat="46.68875479877438" lon="7.055436083943734"><ele></ele><time>2015-8-25T3:35:38Z</time></trkpt>
<trkpt lat="46.68841666988769" lon="7.055503542244842"><ele></ele><time>2015-8-25T3:35:41Z</time></trkpt>
<trkpt lat="46.687818104146245" lon="7.056001231209141"><ele></ele><time>2015-8-25T3:35:44Z</time></trkpt>
<trkpt lat="46.68754175332313" lon="7.055932905640285"><ele></ele><time>2015-8-25T3:35:47Z</time></trkpt>
<trkpt lat="46.6872905660076" lon="7.055111299793774"><ele></ele><time>2015-8-25T3:35:50Z</time></trkpt>
<trkpt lat="46.68739896487773" lon="7.054241850308625"><ele></ele><time>2015-8-25T3:35:53Z</time></trkpt>
<trkpt lat="46.687357396862524" lon="7.0539702747395046"><ele></ele><time>2015-8-25T3:35:56Z</time></trkpt>
<trkpt lat="46.68684521127761" lon="7.0525035853787985"><ele></ele><time>2015-8-25T3:35:59Z</time></trkpt>
<trkpt lat="46.686127485420144" lon="7.051684136662026"><ele></ele><time>2015-8-25T3:36:2Z</time></trkpt>
<trkpt lat="46.68488838248809" lon="7.051743505579922"><ele></ele><time>2015-8-25T3:36:5Z</time></trkpt>
<trkpt lat="46.684613142216435" lon="7.050789212998566"><ele></ele><time>2015-8-25T3:36:8Z</time></trkpt>
<trkpt lat="46.68420780193041" lon="7.050360459479634"><ele></ele><time>2015-8-25T3:36:11Z</time></trkpt>
<trkpt lat="46.68392048100959" lon="7.049859208101569"><ele></ele><time>2015-8-25T3:36:14Z</time></trkpt>
<trkpt lat="46.683176513064794" lon="7.0493240721452946"><ele></ele><time>2015-8-25T3:36:17Z</time></trkpt>
<trkpt lat="46.68286001186913" lon="7.049295474828072"><ele></ele><time>2015-8-25T3:36:20Z</time></trkpt>
<trkpt lat="46.68259958907889" lon="7.049128830242257"><ele></ele><time>2015-8-25T3:36:23Z</time></trkpt>
<trkpt lat="46.68237404032993" lon="7.04874233001119"><ele></ele><time>2015-8-25T3:36:26Z</time></trkpt>
<trkpt lat="46.682342281990664" lon="7.04835290531767"><ele></ele><time>2015-8-25T3:36:29Z</time></trkpt>
<trkpt lat="46.68259090839533" lon="7.047581865936294"><ele></ele><time>2015-8-25T3:36:32Z</time></trkpt>
<trkpt lat="46.6827413075578" lon="7.046429026244883"><ele></ele><time>2015-8-25T3:36:35Z</time></trkpt>
<trkpt lat="46.682132799783076" lon="7.045553507590869"><ele></ele><time>2015-8-25T3:36:38Z</time></trkpt>
<trkpt lat="46.68056044345175" lon="7.045096116143908"><ele></ele><time>2015-8-25T3:36:41Z</time></trkpt>
<trkpt lat="46.68030438004368" lon="7.044897704314077"><ele></ele><time>2015-8-25T3:36:44Z</time></trkpt>
<trkpt lat="46.68003147367012" lon="7.044499886209519"><ele></ele><time>2015-8-25T3:36:47Z</time></trkpt>
<trkpt lat="46.68002220941362" lon="7.042824511016632"><ele></ele><time>2015-8-25T3:36:50Z</time></trkpt>
<trkpt lat="46.680149299633136" lon="7.04197719051362"><ele></ele><time>2015-8-25T3:36:53Z</time></trkpt>
<trkpt lat="46.68013591614041" lon="7.040813865576483"><ele></ele><time>2015-8-25T3:36:56Z</time></trkpt>
<trkpt lat="46.680206918552415" lon="7.04050105635045"><ele></ele><time>2015-8-25T3:36:59Z</time></trkpt>
<trkpt lat="46.68115903627865" lon="7.039921409408283"><ele></ele><time>2015-8-25T3:37:2Z</time></trkpt>
<trkpt lat="46.68137530377352" lon="7.039349857797165"><ele></ele><time>2015-8-25T3:37:5Z</time></trkpt>
<trkpt lat="46.681344554352755" lon="7.038833112034273"><ele></ele><time>2015-8-25T3:37:8Z</time></trkpt>
<trkpt lat="46.681034795571996" lon="7.0372550364236055"><ele></ele><time>2015-8-25T3:37:11Z</time></trkpt>
<trkpt lat="46.68106472836404" lon="7.036864860286988"><ele></ele><time>2015-8-25T3:37:14Z</time></trkpt>
<trkpt lat="46.681319216521146" lon="7.036334800939437"><ele></ele><time>2015-8-25T3:37:17Z</time></trkpt>
<trkpt lat="46.68135770057736" lon="7.035873881958242"><ele></ele><time>2015-8-25T3:37:20Z</time></trkpt>
<trkpt lat="46.68130959211075" lon="7.035712695669378"><ele></ele><time>2015-8-25T3:37:23Z</time></trkpt>
<trkpt lat="46.680215857433346" lon="7.034706312070577"><ele></ele><time>2015-8-25T3:37:26Z</time></trkpt>
<trkpt lat="46.680106763357564" lon="7.033083067540927"><ele></ele><time>2015-8-25T3:37:29Z</time></trkpt>
<trkpt lat="46.67990108878357" lon="7.032324746928365"><ele></ele><time>2015-8-25T3:37:32Z</time></trkpt>
<trkpt lat="46.6795701874844" lon="7.031592990932696"><ele></ele><time>2015-8-25T3:37:35Z</time></trkpt>
<trkpt lat="46.67932590506089" lon="7.029460874544788"><ele></ele><time>2015-8-25T3:37:38Z</time></trkpt>
<trkpt lat="46.67910899372653" lon="7.028912184752742"><ele></ele><time>2015-8-25T3:37:41Z</time></trkpt>
<trkpt lat="46.67778538672549" lon="7.026070991202682"><ele></ele><time>2015-8-25T3:37:44Z</time></trkpt>
<trkpt lat="46.67668061077282" lon="7.02412155872283"><ele></ele><time>2015-8-25T3:37:47Z</time></trkpt>
<trkpt lat="46.676293962546" lon="7.023689117686582"><ele></ele><time>2015-8-25T3:37:50Z</time></trkpt>
<trkpt lat="46.67599473001856" lon="7.023584580928811"><ele></ele><time>2015-8-25T3:37:53Z</time></trkpt>
<trkpt lat="46.67528930204795" lon="7.023768865003642"><ele></ele><time>2015-8-25T3:37:56Z</time></trkpt>
<trkpt lat="46.674634276346325" lon="7.022835927523017"><ele></ele><time>2015-8-25T3:37:59Z</time></trkpt>
<trkpt lat="46.673879581428494" lon="7.022237842276075"><ele></ele><time>2015-8-25T3:38:2Z</time></trkpt>
<trkpt lat="46.673683953573565" lon="7.021968689896668"><ele></ele><time>2015-8-25T3:38:5Z</time></trkpt>
<trkpt lat="46.67341013530515" lon="7.021158146542873"><ele></ele><time>2015-8-25T3:38:8Z</time></trkpt>
<trkpt lat="46.673274428527606" lon="7.021294345940472"><ele></ele><time>2015-8-25T3:38:11Z</time></trkpt>
<trkpt lat="46.673282877110715" lon="7.022008233141418"><ele></ele><time>2015-8-25T3:38:14Z</time></trkpt>
<trkpt lat="46.673544617973505" lon="7.02312806817832"><ele></ele><time>2015-8-25T3:38:17Z</time></trkpt>
<trkpt lat="46.67330548414768" lon="7.023014314210455"><ele></ele><time>2015-8-25T3:38:20Z</time></trkpt>
<trkpt lat="46.67305092431715" lon="7.0230357596156034"><ele></ele><time>2015-8-25T3:38:23Z</time></trkpt>
<trkpt lat="46.67196554002302" lon="7.023358829723667"><ele></ele><time>2015-8-25T3:38:26Z</time></trkpt>
<trkpt lat="46.67132591442545" lon="7.023370701203694"><ele></ele><time>2015-8-25T3:38:29Z</time></trkpt>
<trkpt lat="46.670652420447205" lon="7.023606535552311"><ele></ele><time>2015-8-25T3:38:32Z</time></trkpt>
<trkpt lat="46.67057027972581" lon="7.02351407918252"><ele></ele><time>2015-8-25T3:38:35Z</time></trkpt>
<trkpt lat="46.66996236937637" lon="7.022214267864085"><ele></ele><time>2015-8-25T3:38:38Z</time></trkpt>
<trkpt lat="46.66922901402574" lon="7.019564796065456"><ele></ele><time>2015-8-25T3:38:41Z</time></trkpt>
<trkpt lat="46.66889417616967" lon="7.0187201352946875"><ele></ele><time>2015-8-25T3:38:44Z</time></trkpt>
<trkpt lat="46.66806239196539" lon="7.017112110352041"><ele></ele><time>2015-8-25T3:38:47Z</time></trkpt>
<trkpt lat="46.66739478903327" lon="7.0163670942917395"><ele></ele><time>2015-8-25T3:38:50Z</time></trkpt>
<trkpt lat="46.66695534182418" lon="7.015642373459744"><ele></ele><time>2015-8-25T3:38:53Z</time></trkpt>
<trkpt lat="46.66624780465606" lon="7.0129310441125705"><ele></ele><time>2015-8-25T3:38:56Z</time></trkpt>
<trkpt lat="46.66568088692752" lon="7.011437612436799"><ele></ele><time>2015-8-25T3:38:59Z</time></trkpt>
<trkpt lat="46.664282102574845" lon="7.008292737143947"><ele></ele><time>2015-8-25T3:39:2Z</time></trkpt>
<trkpt lat="46.664122766745336" lon="7.008099442640124"><ele></ele><time>2015-8-25T3:39:5Z</time></trkpt>
<trkpt lat="46.66363251163426" lon="7.007931780682906"><ele></ele><time>2015-8-25T3:39:8Z</time></trkpt>
<trkpt lat="46.663474014329026" lon="7.007724991345508"><ele></ele><time>2015-8-25T3:39:11Z</time></trkpt>
<trkpt lat="46.662996612075425" lon="7.006384449815455"><ele></ele><time>2015-8-25T3:39:14Z</time></trkpt>
<trkpt lat="46.66250981505953" lon="7.0053330835758025"><ele></ele><time>2015-8-25T3:39:17Z</time></trkpt>
<trkpt lat="46.661587957760396" lon="7.002403394604127"><ele></ele><time>2015-8-25T3:39:20Z</time></trkpt>
<trkpt lat="46.66115219543829" lon="7.001817561878869"><ele></ele><time>2015-8-25T3:39:23Z</time></trkpt>
<trkpt lat="46.66098270276578" lon="7.00222885378969"><ele></ele><time>2015-8-25T3:39:26Z</time></trkpt>
<trkpt lat="46.660485565702224" lon="7.005866493429247"><ele></ele><time>2015-8-25T3:39:29Z</time></trkpt>
<trkpt lat="46.660199120268764" lon="7.007300539996243"><ele></ele><time>2015-8-25T3:39:32Z</time></trkpt>
<trkpt lat="46.659729442137554" lon="7.008887966588318"><ele></ele><time>2015-8-25T3:39:35Z</time></trkpt>
<trkpt lat="46.65979261943474" lon="7.009813918960458"><ele></ele><time>2015-8-25T3:39:38Z</time></trkpt>
<trkpt lat="46.65962304519226" lon="7.0101347701404215"><ele></ele><time>2015-8-25T3:39:41Z</time></trkpt>
<trkpt lat="46.6593445924478" lon="7.010341035363619"><ele></ele><time>2015-8-25T3:39:44Z</time></trkpt>
<trkpt lat="46.65834295427495" lon="7.010235709979408"><ele></ele><time>2015-8-25T3:39:47Z</time></trkpt>
<trkpt lat="46.65798361451385" lon="7.010499471171077"><ele></ele><time>2015-8-25T3:39:50Z</time></trkpt>
<trkpt lat="46.65799641328762" lon="7.011555089253794"><ele></ele><time>2015-8-25T3:39:53Z</time></trkpt>
<trkpt lat="46.65786495877767" lon="7.012622099737268"><ele></ele><time>2015-8-25T3:39:56Z</time></trkpt>
<trkpt lat="46.6577033426779" lon="7.013137663051761"><ele></ele><time>2015-8-25T3:39:59Z</time></trkpt>
<trkpt lat="46.656310780094756" lon="7.0161356364610965"><ele></ele><time>2015-8-25T3:40:2Z</time></trkpt>
<trkpt lat="46.655891859885436" lon="7.0157767866976"><ele></ele><time>2015-8-25T3:40:5Z</time></trkpt>
<trkpt lat="46.65555164853637" lon="7.015313250701253"><ele></ele><time>2015-8-25T3:40:8Z</time></trkpt>
<trkpt lat="46.65506543983053" lon="7.014193739473016"><ele></ele><time>2015-8-25T3:40:11Z</time></trkpt>
<trkpt lat="46.6529676634035" lon="7.015468777653216"><ele></ele><time>2015-8-25T3:40:14Z</time></trkpt>
<trkpt lat="46.652886267593274" lon="7.015769768062599"><ele></ele><time>2015-8-25T3:40:17Z</time></trkpt>
<trkpt lat="46.65282051033747" lon="7.0175476515874795"><ele></ele><time>2015-8-25T3:40:20Z</time></trkpt>
<trkpt lat="46.6527366886112" lon="7.0176483142612875"><ele></ele><time>2015-8-25T3:40:23Z</time></trkpt>
<trkpt lat="46.65147739432047" lon="7.017365950670312"><ele></ele><time>2015-8-25T3:40:26Z</time></trkpt>
<trkpt lat="46.65122978924557" lon="7.017485213266152"><ele></ele><time>2015-8-25T3:40:29Z</time></trkpt>
<trkpt lat="46.6509459677977" lon="7.017871354107184"><ele></ele><time>2015-8-25T3:40:32Z</time></trkpt>
<trkpt lat="46.65088754747288" lon="7.017799937414811"><ele></ele><time>2015-8-25T3:40:35Z</time></trkpt>
<trkpt lat="46.650924353165756" lon="7.017426022216509"><ele></ele><time>2015-8-25T3:40:38Z</time></trkpt>
<trkpt lat="46.650819259933684" lon="7.016756470211119"><ele></ele><time>2015-8-25T3:40:41Z</time></trkpt>
<trkpt lat="46.65064333594624" lon="7.016230161606911"><ele></ele><time>2015-8-25T3:40:44Z</time></trkpt>
<trkpt lat="46.64947149762192" lon="7.014608037737006"><ele></ele><time>2015-8-25T3:40:47Z</time></trkpt>
<trkpt lat="46.64910529485169" lon="7.014454547232425"><ele></ele><time>2015-8-25T3:40:50Z</time></trkpt>
<trkpt lat="46.648831957829515" lon="7.014550339221965"><ele></ele><time>2015-8-25T3:40:53Z</time></trkpt>
<trkpt lat="46.648113607943934" lon="7.015318674118223"><ele></ele><time>2015-8-25T3:40:56Z</time></trkpt>
<trkpt lat="46.646626455152926" lon="7.0166014534954995"><ele></ele><time>2015-8-25T3:40:59Z</time></trkpt>
<trkpt lat="46.646316563051016" lon="7.017106783881953"><ele></ele><time>2015-8-25T3:41:2Z</time></trkpt>
<trkpt lat="46.64607219920007" lon="7.018376212405773"><ele></ele><time>2015-8-25T3:41:5Z</time></trkpt>
<trkpt lat="46.64597379288464" lon="7.018478802234108"><ele></ele><time>2015-8-25T3:41:8Z</time></trkpt>
<trkpt lat="46.64586273058737" lon="7.018551132754295"><ele></ele><time>2015-8-25T3:41:11Z</time></trkpt>
<trkpt lat="46.645148176951665" lon="7.018312213765283"><ele></ele><time>2015-8-25T3:41:14Z</time></trkpt>
<trkpt lat="46.64455950827168" lon="7.018554925448937"><ele></ele><time>2015-8-25T3:41:17Z</time></trkpt>
<trkpt lat="46.643851823833856" lon="7.018481968620688"><ele></ele><time>2015-8-25T3:41:20Z</time></trkpt>
<trkpt lat="46.643755511626395" lon="7.018641723189685"><ele></ele><time>2015-8-25T3:41:23Z</time></trkpt>
<trkpt lat="46.64361007476605" lon="7.019073300761118"><ele></ele><time>2015-8-25T3:41:26Z</time></trkpt>
<trkpt lat="46.64359925469666" lon="7.019379491449309"><ele></ele><time>2015-8-25T3:41:29Z</time></trkpt>
<trkpt lat="46.643225231927175" lon="7.020256640382479"><ele></ele><time>2015-8-25T3:41:32Z</time></trkpt>
<trkpt lat="46.64318448201911" lon="7.020826943650398"><ele></ele><time>2015-8-25T3:41:35Z</time></trkpt>
<trkpt lat="46.643373149080674" lon="7.02124797615299"><ele></ele><time>2015-8-25T3:41:38Z</time></trkpt>
<trkpt lat="46.64347598232553" lon="7.021788530562608"><ele></ele><time>2015-8-25T3:41:41Z</time></trkpt>
<trkpt lat="46.643828255408444" lon="7.022592959558795"><ele></ele><time>2015-8-25T3:41:44Z</time></trkpt>
<trkpt lat="46.64401338158363" lon="7.023866348404087"><ele></ele><time>2015-8-25T3:41:47Z</time></trkpt>
<trkpt lat="46.6442420182833" lon="7.024794572239957"><ele></ele><time>2015-8-25T3:41:50Z</time></trkpt>
<trkpt lat="46.644256007622616" lon="7.025147702822118"><ele></ele><time>2015-8-25T3:41:53Z</time></trkpt>
<trkpt lat="46.644158018590694" lon="7.025326400445812"><ele></ele><time>2015-8-25T3:41:56Z</time></trkpt>
<trkpt lat="46.64393086506228" lon="7.025462763201534"><ele></ele><time>2015-8-25T3:41:59Z</time></trkpt>
<trkpt lat="46.643610768468356" lon="7.025077850433254"><ele></ele><time>2015-8-25T3:42:2Z</time></trkpt>
<trkpt lat="46.643435168676945" lon="7.02501112196476"><ele></ele><time>2015-8-25T3:42:5Z</time></trkpt>
<trkpt lat="46.64283334318267" lon="7.0251385818537635"><ele></ele><time>2015-8-25T3:42:8Z</time></trkpt>
<trkpt lat="46.64278832870712" lon="7.025285263133733"><ele></ele><time>2015-8-25T3:42:11Z</time></trkpt>
<trkpt lat="46.64285948280935" lon="7.025637893567002"><ele></ele><time>2015-8-25T3:42:14Z</time></trkpt>
<trkpt lat="46.64235455461114" lon="7.025673660021718"><ele></ele><time>2015-8-25T3:42:17Z</time></trkpt>
<trkpt lat="46.641977623005886" lon="7.02551991762026"><ele></ele><time>2015-8-25T3:42:20Z</time></trkpt>
<trkpt lat="46.6410440619446" lon="7.0247682666547435"><ele></ele><time>2015-8-25T3:42:23Z</time></trkpt>
<trkpt lat="46.64080240328039" lon="7.0250884440438375"><ele></ele><time>2015-8-25T3:42:26Z</time></trkpt>
<trkpt lat="46.64071263314179" lon="7.025075699215022"><ele></ele><time>2015-8-25T3:42:29Z</time></trkpt>
<trkpt lat="46.639642370813206" lon="7.023993794293313"><ele></ele><time>2015-8-25T3:42:32Z</time></trkpt>
<trkpt lat="46.639283139355506" lon="7.023247200074863"><ele></ele><time>2015-8-25T3:42:35Z</time></trkpt>
<trkpt lat="46.63910853413592" lon="7.023649523439073"><ele></ele><time>2015-8-25T3:42:38Z</time></trkpt>
<trkpt lat="46.63825096334132" lon="7.024307713681105"><ele></ele><time>2015-8-25T3:42:41Z</time></trkpt>
<trkpt lat="46.63804399526374" lon="7.025069284267014"><ele></ele><time>2015-8-25T3:42:44Z</time></trkpt>
<trkpt lat="46.63765784849745" lon="7.02471068745601"><ele></ele><time>2015-8-25T3:42:47Z</time></trkpt>
<trkpt lat="46.63728117769947" lon="7.024169616858146"><ele></ele><time>2015-8-25T3:42:50Z</time></trkpt>
<trkpt lat="46.637090826292216" lon="7.0240800050409105"><ele></ele><time>2015-8-25T3:42:53Z</time></trkpt>
<trkpt lat="46.63690541798037" lon="7.024083684148363"><ele></ele><time>2015-8-25T3:42:56Z</time></trkpt>
<trkpt lat="46.636119010376426" lon="7.02471740268105"><ele></ele><time>2015-8-25T3:42:59Z</time></trkpt>
<trkpt lat="46.635840963328256" lon="7.02548919582464"><ele></ele><time>2015-8-25T3:43:2Z</time></trkpt>
<trkpt lat="46.63582107944177" lon="7.026268964222502"><ele></ele><time>2015-8-25T3:43:5Z</time></trkpt>
<trkpt lat="46.635671032651295" lon="7.026698278580836"><ele></ele><time>2015-8-25T3:43:8Z</time></trkpt>
<trkpt lat="46.634870460693065" lon="7.027287991466353"><ele></ele><time>2015-8-25T3:43:11Z</time></trkpt>
<trkpt lat="46.63455933831059" lon="7.026674001360885"><ele></ele><time>2015-8-25T3:43:14Z</time></trkpt>
<trkpt lat="46.63424979265464" lon="7.026720338446466"><ele></ele><time>2015-8-25T3:43:17Z</time></trkpt>
<trkpt lat="46.63379078869147" lon="7.027123570211963"><ele></ele><time>2015-8-25T3:43:20Z</time></trkpt>
<trkpt lat="46.633582581917224" lon="7.027112076974556"><ele></ele><time>2015-8-25T3:43:23Z</time></trkpt>
<trkpt lat="46.632908605288655" lon="7.026526064975121"><ele></ele><time>2015-8-25T3:43:26Z</time></trkpt>
<trkpt lat="46.63210527709245" lon="7.02670933876939"><ele></ele><time>2015-8-25T3:43:29Z</time></trkpt>
<trkpt lat="46.631707400142325" lon="7.026164495225343"><ele></ele><time>2015-8-25T3:43:32Z</time></trkpt>
<trkpt lat="46.63105683825444" lon="7.024366040451233"><ele></ele><time>2015-8-25T3:43:35Z</time></trkpt>
<trkpt lat="46.63031296026536" lon="7.023620600985337"><ele></ele><time>2015-8-25T3:43:38Z</time></trkpt>
<trkpt lat="46.62964652424252" lon="7.023168113127496"><ele></ele><time>2015-8-25T3:43:41Z</time></trkpt>
<trkpt lat="46.62954376063975" lon="7.02321781292417"><ele></ele><time>2015-8-25T3:43:44Z</time></trkpt>
<trkpt lat="46.62946343910122" lon="7.024161444964456"><ele></ele><time>2015-8-25T3:43:47Z</time></trkpt>
<trkpt lat="46.62902932913318" lon="7.024579430116049"><ele></ele><time>2015-8-25T3:43:50Z</time></trkpt>
<trkpt lat="46.628429676690054" lon="7.024974776134115"><ele></ele><time>2015-8-25T3:43:53Z</time></trkpt>
<trkpt lat="46.62829296743772" lon="7.024976865027453"><ele></ele><time>2015-8-25T3:43:56Z</time></trkpt>
<trkpt lat="46.62743730551013" lon="7.0229464725935955"><ele></ele><time>2015-8-25T3:43:59Z</time></trkpt>
<trkpt lat="46.6272411861762" lon="7.022210447196188"><ele></ele><time>2015-8-25T3:44:2Z</time></trkpt>
<trkpt lat="46.62708390480123" lon="7.020244461484271"><ele></ele><time>2015-8-25T3:44:5Z</time></trkpt>
<trkpt lat="46.62659880879956" lon="7.0181792180360505"><ele></ele><time>2015-8-25T3:44:8Z</time></trkpt>
<trkpt lat="46.62639572674665" lon="7.017682663573557"><ele></ele><time>2015-8-25T3:44:11Z</time></trkpt>
<trkpt lat="46.62570172419497" lon="7.0168204662158695"><ele></ele><time>2015-8-25T3:44:14Z</time></trkpt>
<trkpt lat="46.6243138635131" lon="7.016059069672096"><ele></ele><time>2015-8-25T3:44:17Z</time></trkpt>
<trkpt lat="46.623748334158236" lon="7.016096760910469"><ele></ele><time>2015-8-25T3:44:20Z</time></trkpt>
<trkpt lat="46.623261527200526" lon="7.0154677583902965"><ele></ele><time>2015-8-25T3:44:23Z</time></trkpt>
<trkpt lat="46.62134212292676" lon="7.016603750328962"><ele></ele><time>2015-8-25T3:44:26Z</time></trkpt>
<trkpt lat="46.62086745427395" lon="7.016616216407015"><ele></ele><time>2015-8-25T3:44:29Z</time></trkpt>
<trkpt lat="46.61945156699495" lon="7.017142616044506"><ele></ele><time>2015-8-25T3:44:32Z</time></trkpt>
<trkpt lat="46.61901226880768" lon="7.017207722277113"><ele></ele><time>2015-8-25T3:44:35Z</time></trkpt>
<trkpt lat="46.61832744585891" lon="7.0180275244174855"><ele></ele><time>2015-8-25T3:44:38Z</time></trkpt>
<trkpt lat="46.617855784757275" lon="7.0184530515235615"><ele></ele><time>2015-8-25T3:44:41Z</time></trkpt>
<trkpt lat="46.61682512642483" lon="7.019159597294784"><ele></ele><time>2015-8-25T3:44:44Z</time></trkpt>
<trkpt lat="46.61668556364734" lon="7.019315326569133"><ele></ele><time>2015-8-25T3:44:47Z</time></trkpt>
<trkpt lat="46.616599289086956" lon="7.020334060616202"><ele></ele><time>2015-8-25T3:44:50Z</time></trkpt>
<trkpt lat="46.61636784446135" lon="7.021152543656243"><ele></ele><time>2015-8-25T3:44:53Z</time></trkpt>
<trkpt lat="46.61635078371616" lon="7.023039396233233"><ele></ele><time>2015-8-25T3:44:56Z</time></trkpt>
<trkpt lat="46.61625471028718" lon="7.023728888117904"><ele></ele><time>2015-8-25T3:44:59Z</time></trkpt>
<trkpt lat="46.61671695187912" lon="7.024621500772157"><ele></ele><time>2015-8-25T3:45:2Z</time></trkpt>
<trkpt lat="46.616679473194104" lon="7.0250994358870305"><ele></ele><time>2015-8-25T3:45:5Z</time></trkpt>
<trkpt lat="46.61640326397922" lon="7.0261336673560875"><ele></ele><time>2015-8-25T3:45:8Z</time></trkpt>
<trkpt lat="46.61648537646849" lon="7.027398167354842"><ele></ele><time>2015-8-25T3:45:11Z</time></trkpt>
<trkpt lat="46.615906524467306" lon="7.027247935540337"><ele></ele><time>2015-8-25T3:45:14Z</time></trkpt>
<trkpt lat="46.61543269247206" lon="7.027326702762614"><ele></ele><time>2015-8-25T3:45:17Z</time></trkpt>
<trkpt lat="46.61486179396401" lon="7.0275659790393625"><ele></ele><time>2015-8-25T3:45:20Z</time></trkpt>
<trkpt lat="46.61383247580115" lon="7.028318541921951"><ele></ele><time>2015-8-25T3:45:23Z</time></trkpt>
<trkpt lat="46.61345411224207" lon="7.028467554225879"><ele></ele><time>2015-8-25T3:45:26Z</time></trkpt>
<trkpt lat="46.612707364799704" lon="7.028549661109725"><ele></ele><time>2015-8-25T3:45:29Z</time></trkpt>
<trkpt lat="46.61218575165599" lon="7.028804697797918"><ele></ele><time>2015-8-25T3:45:32Z</time></trkpt>
<trkpt lat="46.61044822406361" lon="7.0304300359220875"><ele></ele><time>2015-8-25T3:45:35Z</time></trkpt>
<trkpt lat="46.608934145813656" lon="7.032590319002726"><ele></ele><time>2015-8-25T3:45:38Z</time></trkpt>
<trkpt lat="46.6087558619746" lon="7.032605565540094"><ele></ele><time>2015-8-25T3:45:41Z</time></trkpt>
<trkpt lat="46.60848773054292" lon="7.032344623528303"><ele></ele><time>2015-8-25T3:45:44Z</time></trkpt>
<trkpt lat="46.60755250514242" lon="7.031116040713569"><ele></ele><time>2015-8-25T3:45:47Z</time></trkpt>
<trkpt lat="46.60738536953723" lon="7.031119888368896"><ele></ele><time>2015-8-25T3:45:50Z</time></trkpt>
<trkpt lat="46.607176990225895" lon="7.031318110756203"><ele></ele><time>2015-8-25T3:45:53Z</time></trkpt>
<trkpt lat="46.60680565844162" lon="7.031847411144088"><ele></ele><time>2015-8-25T3:45:56Z</time></trkpt>
<trkpt lat="46.606826020125965" lon="7.032114208621864"><ele></ele><time>2015-8-25T3:45:59Z</time></trkpt>
<trkpt lat="46.60756426527913" lon="7.03355601801935"><ele></ele><time>2015-8-25T3:46:2Z</time></trkpt>
<trkpt lat="46.60815936392671" lon="7.03430002571846"><ele></ele><time>2015-8-25T3:46:5Z</time></trkpt>
<trkpt lat="46.608415336926015" lon="7.034755762939373"><ele></ele><time>2015-8-25T3:46:8Z</time></trkpt>
<trkpt lat="46.60841482773938" lon="7.035018368444889"><ele></ele><time>2015-8-25T3:46:11Z</time></trkpt>
<trkpt lat="46.60831616746461" lon="7.035230174816834"><ele></ele><time>2015-8-25T3:46:14Z</time></trkpt>
<trkpt lat="46.60803855004801" lon="7.035572562919285"><ele></ele><time>2015-8-25T3:46:17Z</time></trkpt>
<trkpt lat="46.6076423310965" lon="7.035803884913682"><ele></ele><time>2015-8-25T3:46:20Z</time></trkpt>
<trkpt lat="46.60808834037273" lon="7.035500899894359"><ele></ele><time>2015-8-25T3:46:23Z</time></trkpt>
<trkpt lat="46.6083877535041" lon="7.03504468637389"><ele></ele><time>2015-8-25T3:46:26Z</time></trkpt>
<trkpt lat="46.60842245994392" lon="7.034823405369049"><ele></ele><time>2015-8-25T3:46:29Z</time></trkpt>
<trkpt lat="46.60836362536464" lon="7.034550822535127"><ele></ele><time>2015-8-25T3:46:32Z</time></trkpt>
<trkpt lat="46.60821828876121" lon="7.03430312985357"><ele></ele><time>2015-8-25T3:46:35Z</time></trkpt>
<trkpt lat="46.60876636352787" lon="7.0351023721210995"><ele></ele><time>2015-8-25T3:46:38Z</time></trkpt>
<trkpt lat="46.60913095531858" lon="7.0360158511339455"><ele></ele><time>2015-8-25T3:46:41Z</time></trkpt>
<trkpt lat="46.60975966715135" lon="7.036691715369745"><ele></ele><time>2015-8-25T3:46:44Z</time></trkpt>
<trkpt lat="46.61010374082212" lon="7.036868841787626"><ele></ele><time>2015-8-25T3:46:47Z</time></trkpt>
<trkpt lat="46.61035108528553" lon="7.037122741948666"><ele></ele><time>2015-8-25T3:46:50Z</time></trkpt>
<trkpt lat="46.611329558694294" lon="7.038472948227476"><ele></ele><time>2015-8-25T3:46:53Z</time></trkpt>
<trkpt lat="46.61148922458828" lon="7.038881239116923"><ele></ele><time>2015-8-25T3:46:56Z</time></trkpt>
<trkpt lat="46.611797228827896" lon="7.040200567816963"><ele></ele><time>2015-8-25T3:46:59Z</time></trkpt>
<trkpt lat="46.61175548242997" lon="7.0403865605947615"><ele></ele><time>2015-8-25T3:47:2Z</time></trkpt>
<trkpt lat="46.61112884842868" lon="7.040449395050682"><ele></ele><time>2015-8-25T3:47:5Z</time></trkpt>
<trkpt lat="46.61084326944094" lon="7.040739479616704"><ele></ele><time>2015-8-25T3:47:8Z</time></trkpt>
<trkpt lat="46.610678465559204" lon="7.041382616374071"><ele></ele><time>2015-8-25T3:47:11Z</time></trkpt>
<trkpt lat="46.61072430248398" lon="7.0418954243536245"><ele></ele><time>2015-8-25T3:47:14Z</time></trkpt>
<trkpt lat="46.61044090685221" lon="7.042015188447695"><ele></ele><time>2015-8-25T3:47:17Z</time></trkpt>
<trkpt lat="46.61036974097999" lon="7.042156336564964"><ele></ele><time>2015-8-25T3:47:20Z</time></trkpt>
<trkpt lat="46.60979537337721" lon="7.043769409468129"><ele></ele><time>2015-8-25T3:47:23Z</time></trkpt>
<trkpt lat="46.60977591708" lon="7.044200825912755"><ele></ele><time>2015-8-25T3:47:26Z</time></trkpt>
<trkpt lat="46.60931478200493" lon="7.046121772161303"><ele></ele><time>2015-8-25T3:47:29Z</time></trkpt>
<trkpt lat="46.60938482816854" lon="7.047249059802289"><ele></ele><time>2015-8-25T3:47:32Z</time></trkpt>
<trkpt lat="46.60936719431795" lon="7.048593267339125"><ele></ele><time>2015-8-25T3:47:35Z</time></trkpt>
<trkpt lat="46.609272214084164" lon="7.049145379840393"><ele></ele><time>2015-8-25T3:47:38Z</time></trkpt>
<trkpt lat="46.609140947973216" lon="7.049365901896007"><ele></ele><time>2015-8-25T3:47:41Z</time></trkpt>
<trkpt lat="46.608176418298356" lon="7.050293985997131"><ele></ele><time>2015-8-25T3:47:44Z</time></trkpt>
<trkpt lat="46.60737610643986" lon="7.050547249592718"><ele></ele><time>2015-8-25T3:47:47Z</time></trkpt>
<trkpt lat="46.60525503490021" lon="7.05166286623929"><ele></ele><time>2015-8-25T3:47:50Z</time></trkpt>
<trkpt lat="46.60417418004972" lon="7.051922738284606"><ele></ele><time>2015-8-25T3:47:53Z</time></trkpt>
<trkpt lat="46.603408651509866" lon="7.052249345395872"><ele></ele><time>2015-8-25T3:47:56Z</time></trkpt>
<trkpt lat="46.60229843208312" lon="7.053692072747026"><ele></ele><time>2015-8-25T3:47:59Z</time></trkpt>
<trkpt lat="46.60166030421063" lon="7.0542123083265835"><ele></ele><time>2015-8-25T3:48:2Z</time></trkpt>
<trkpt lat="46.60098597283763" lon="7.054461722335381"><ele></ele><time>2015-8-25T3:48:5Z</time></trkpt>
<trkpt lat="46.60009915124882" lon="7.055074063478795"><ele></ele><time>2015-8-25T3:48:8Z</time></trkpt>
<trkpt lat="46.598276504542625" lon="7.054998036905448"><ele></ele><time>2015-8-25T3:48:11Z</time></trkpt>
<trkpt lat="46.597839977723446" lon="7.054846890167835"><ele></ele><time>2015-8-25T3:48:14Z</time></trkpt>
<trkpt lat="46.59765481922568" lon="7.054927180205272"><ele></ele><time>2015-8-25T3:48:17Z</time></trkpt>
<trkpt lat="46.59715285178118" lon="7.057394961918192"><ele></ele><time>2015-8-25T3:48:20Z</time></trkpt>
<trkpt lat="46.59651188271688" lon="7.05755133825548"><ele></ele><time>2015-8-25T3:48:23Z</time></trkpt>
<trkpt lat="46.59531181643474" lon="7.058694994799748"><ele></ele><time>2015-8-25T3:48:26Z</time></trkpt>
<trkpt lat="46.595112653600005" lon="7.059053899307094"><ele></ele><time>2015-8-25T3:48:29Z</time></trkpt>
<trkpt lat="46.594952959827005" lon="7.059829219600935"><ele></ele><time>2015-8-25T3:48:32Z</time></trkpt>
<trkpt lat="46.59472664016885" lon="7.060163144705853"><ele></ele><time>2015-8-25T3:48:35Z</time></trkpt>
<trkpt lat="46.592481656987495" lon="7.0624579253923665"><ele></ele><time>2015-8-25T3:48:38Z</time></trkpt>
<trkpt lat="46.591562387163" lon="7.063516602766391"><ele></ele><time>2015-8-25T3:48:41Z</time></trkpt>
<trkpt lat="46.58952075968122" lon="7.0653803110917694"><ele></ele><time>2015-8-25T3:48:44Z</time></trkpt>
<trkpt lat="46.58640768519377" lon="7.070261545928431"><ele></ele><time>2015-8-25T3:48:47Z</time></trkpt>
<trkpt lat="46.585744319812655" lon="7.071137928832802"><ele></ele><time>2015-8-25T3:48:50Z</time></trkpt>
<trkpt lat="46.58550157402142" lon="7.071372359875973"><ele></ele><time>2015-8-25T3:48:53Z</time></trkpt>
<trkpt lat="46.58531423752202" lon="7.071400095252103"><ele></ele><time>2015-8-25T3:48:56Z</time></trkpt>
<trkpt lat="46.58444537720786" lon="7.071004092309397"><ele></ele><time>2015-8-25T3:48:59Z</time></trkpt>
<trkpt lat="46.583087583990405" lon="7.071281973192163"><ele></ele><time>2015-8-25T3:49:2Z</time></trkpt>
<trkpt lat="46.58145627010278" lon="7.072365847249399"><ele></ele><time>2015-8-25T3:49:5Z</time></trkpt>
<trkpt lat="46.58107279615435" lon="7.072420227952447"><ele></ele><time>2015-8-25T3:49:8Z</time></trkpt>
<trkpt lat="46.58020062933824" lon="7.073640763122586"><ele></ele><time>2015-8-25T3:49:11Z</time></trkpt>
<trkpt lat="46.5799698553061" lon="7.074495205869523"><ele></ele><time>2015-8-25T3:49:14Z</time></trkpt>
<trkpt lat="46.579159546349295" lon="7.075747762987188"><ele></ele><time>2015-8-25T3:49:17Z</time></trkpt>
<trkpt lat="46.57895484777421" lon="7.076272210545734"><ele></ele><time>2015-8-25T3:49:20Z</time></trkpt>
<trkpt lat="46.57832715922109" lon="7.078455840711402"><ele></ele><time>2015-8-25T3:49:23Z</time></trkpt>
<trkpt lat="46.579155676026026" lon="7.079991783683624"><ele></ele><time>2015-8-25T3:49:26Z</time></trkpt>
<trkpt lat="46.57945757043649" lon="7.080950941640499"><ele></ele><time>2015-8-25T3:49:29Z</time></trkpt>
<trkpt lat="46.57961623344862" lon="7.081238784404765"><ele></ele><time>2015-8-25T3:49:32Z</time></trkpt>
<trkpt lat="46.579867263270124" lon="7.081609193453277"><ele></ele><time>2015-8-25T3:49:35Z</time></trkpt>
<trkpt lat="46.58070015792518" lon="7.082317253637067"><ele></ele><time>2015-8-25T3:49:38Z</time></trkpt>
<trkpt lat="46.58079755063535" lon="7.082540385056896"><ele></ele><time>2015-8-25T3:49:41Z</time></trkpt>
<trkpt lat="46.58078572684065" lon="7.082769294910888"><ele></ele><time>2015-8-25T3:49:44Z</time></trkpt>
<trkpt lat="46.58053065936168" lon="7.083018477683584"><ele></ele><time>2015-8-25T3:49:47Z</time></trkpt>
<trkpt lat="46.58045589272893" lon="7.083015791980596"><ele></ele><time>2015-8-25T3:49:50Z</time></trkpt>
<trkpt lat="46.58042991289749" lon="7.082838010111756"><ele></ele><time>2015-8-25T3:49:53Z</time></trkpt>
<trkpt lat="46.58034366435326" lon="7.082778494412266"><ele></ele><time>2015-8-25T3:49:56Z</time></trkpt>
<trkpt lat="46.57965013105014" lon="7.08336444254795"><ele></ele><time>2015-8-25T3:49:59Z</time></trkpt>
<trkpt lat="46.57915508957277" lon="7.083602633821569"><ele></ele><time>2015-8-25T3:50:2Z</time></trkpt>
<trkpt lat="46.57890332991664" lon="7.085799189797505"><ele></ele><time>2015-8-25T3:50:5Z</time></trkpt>
<trkpt lat="46.57825263493796" lon="7.08609537679847"><ele></ele><time>2015-8-25T3:50:8Z</time></trkpt>
<trkpt lat="46.57801684450003" lon="7.086404994203383"><ele></ele><time>2015-8-25T3:50:11Z</time></trkpt>
<trkpt lat="46.577839556100905" lon="7.086876720802609"><ele></ele><time>2015-8-25T3:50:14Z</time></trkpt>
<trkpt lat="46.57681426865426" lon="7.087375649224554"><ele></ele><time>2015-8-25T3:50:17Z</time></trkpt>
<trkpt lat="46.57571976290034" lon="7.087167810328447"><ele></ele><time>2015-8-25T3:50:20Z</time></trkpt>
<trkpt lat="46.57319781337167" lon="7.087118407252988"><ele></ele><time>2015-8-25T3:50:23Z</time></trkpt>
<trkpt lat="46.57311801577097" lon="7.0871951820014205"><ele></ele><time>2015-8-25T3:50:26Z</time></trkpt>
<trkpt lat="46.57298322159101" lon="7.087758692758823"><ele></ele><time>2015-8-25T3:50:29Z</time></trkpt>
<trkpt lat="46.571956374192496" lon="7.090487884705542"><ele></ele><time>2015-8-25T3:50:32Z</time></trkpt>
<trkpt lat="46.57191369397532" lon="7.091195568941844"><ele></ele><time>2015-8-25T3:50:35Z</time></trkpt>
<trkpt lat="46.57203906876051" lon="7.0920076159867875"><ele></ele><time>2015-8-25T3:50:38Z</time></trkpt>
<trkpt lat="46.57249957315161" lon="7.091921052031818"><ele></ele><time>2015-8-25T3:50:41Z</time></trkpt>
<trkpt lat="46.573866914102425" lon="7.091958079771228"><ele></ele><time>2015-8-25T3:50:44Z</time></trkpt>
<trkpt lat="46.57527273292906" lon="7.091784471447128"><ele></ele><time>2015-8-25T3:50:47Z</time></trkpt>
<trkpt lat="46.57605517440365" lon="7.0922347010717015"><ele></ele><time>2015-8-25T3:50:50Z</time></trkpt>
<trkpt lat="46.57712671328811" lon="7.092462152454013"><ele></ele><time>2015-8-25T3:50:53Z</time></trkpt>
<trkpt lat="46.577551501224015" lon="7.092791498068468"><ele></ele><time>2015-8-25T3:50:56Z</time></trkpt>
<trkpt lat="46.577751326026934" lon="7.09279469246487"><ele></ele><time>2015-8-25T3:50:59Z</time></trkpt>
<trkpt lat="46.57798761571557" lon="7.092643241998224"><ele></ele><time>2015-8-25T3:51:2Z</time></trkpt>
<trkpt lat="46.579157551736564" lon="7.093158784735416"><ele></ele><time>2015-8-25T3:51:5Z</time></trkpt>
<trkpt lat="46.57982056230743" lon="7.093115648542333"><ele></ele><time>2015-8-25T3:51:8Z</time></trkpt>
<trkpt lat="46.580755796357195" lon="7.0939957941565845"><ele></ele><time>2015-8-25T3:51:11Z</time></trkpt>
<trkpt lat="46.58146758239105" lon="7.094271760137796"><ele></ele><time>2015-8-25T3:51:14Z</time></trkpt>
<trkpt lat="46.58181240768773" lon="7.094566568449271"><ele></ele><time>2015-8-25T3:51:17Z</time></trkpt>
<trkpt lat="46.58198582885082" lon="7.0945969190516704"><ele></ele><time>2015-8-25T3:51:20Z</time></trkpt>
<trkpt lat="46.58249821951982" lon="7.094418491572465"><ele></ele><time>2015-8-25T3:51:23Z</time></trkpt>
<trkpt lat="46.58269201924474" lon="7.093990854686363"><ele></ele><time>2015-8-25T3:51:26Z</time></trkpt>
<trkpt lat="46.58276728898018" lon="7.093985577559403"><ele></ele><time>2015-8-25T3:51:29Z</time></trkpt>
<trkpt lat="46.583354096167845" lon="7.094457674797713"><ele></ele><time>2015-8-25T3:51:32Z</time></trkpt>
<trkpt lat="46.58453086503249" lon="7.096741636344175"><ele></ele><time>2015-8-25T3:51:35Z</time></trkpt>
<trkpt lat="46.585484530109866" lon="7.098030820547284"><ele></ele><time>2015-8-25T3:51:38Z</time></trkpt>
<trkpt lat="46.58576137043319" lon="7.098661405572134"><ele></ele><time>2015-8-25T3:51:41Z</time></trkpt>
<trkpt lat="46.58613175575976" lon="7.099169702617719"><ele></ele><time>2015-8-25T3:51:44Z</time></trkpt>
<trkpt lat="46.586665928414824" lon="7.099474494071874"><ele></ele><time>2015-8-25T3:51:47Z</time></trkpt>
<trkpt lat="46.58768866485602" lon="7.100577434940593"><ele></ele><time>2015-8-25T3:51:50Z</time></trkpt>
<trkpt lat="46.58860110563183" lon="7.101227327637586"><ele></ele><time>2015-8-25T3:51:53Z</time></trkpt>
<trkpt lat="46.58937139696419" lon="7.101532297560009"><ele></ele><time>2015-8-25T3:51:56Z</time></trkpt>
<trkpt lat="46.59013859490876" lon="7.101490507120558"><ele></ele><time>2015-8-25T3:51:59Z</time></trkpt>
<trkpt lat="46.59050212362123" lon="7.101275359884224"><ele></ele><time>2015-8-25T3:52:2Z</time></trkpt>
<trkpt lat="46.591625742275944" lon="7.1002909547234205"><ele></ele><time>2015-8-25T3:52:5Z</time></trkpt>
<trkpt lat="46.59264031425724" lon="7.0992168580093375"><ele></ele><time>2015-8-25T3:52:8Z</time></trkpt>
<trkpt lat="46.59371028009463" lon="7.098609720864624"><ele></ele><time>2015-8-25T3:52:11Z</time></trkpt>
<trkpt lat="46.59398084876756" lon="7.098595651725604"><ele></ele><time>2015-8-25T3:52:14Z</time></trkpt>
<trkpt lat="46.59442265668255" lon="7.09872911234072"><ele></ele><time>2015-8-25T3:52:17Z</time></trkpt>
<trkpt lat="46.59511901207955" lon="7.099362398771925"><ele></ele><time>2015-8-25T3:52:20Z</time></trkpt>
<trkpt lat="46.59674796068611" lon="7.0990842779284735"><ele></ele><time>2015-8-25T3:52:23Z</time></trkpt>
<trkpt lat="46.596879806689415" lon="7.099154105428711"><ele></ele><time>2015-8-25T3:52:26Z</time></trkpt>
<trkpt lat="46.5978581973702" lon="7.10050464591392"><ele></ele><time>2015-8-25T3:52:29Z</time></trkpt>
<trkpt lat="46.598473818635824" lon="7.101853660865891"><ele></ele><time>2015-8-25T3:52:32Z</time></trkpt>
<trkpt lat="46.598912098333805" lon="7.102332288812573"><ele></ele><time>2015-8-25T3:52:35Z</time></trkpt>
<trkpt lat="46.59897142893506" lon="7.102920283383109"><ele></ele><time>2015-8-25T3:52:38Z</time></trkpt>
<trkpt lat="46.59909120126484" lon="7.103153473970685"><ele></ele><time>2015-8-25T3:52:41Z</time></trkpt>
<trkpt lat="46.599333873981735" lon="7.102445464186053"><ele></ele><time>2015-8-25T3:52:44Z</time></trkpt>
<trkpt lat="46.59998387866211" lon="7.103026864223791"><ele></ele><time>2015-8-25T3:52:47Z</time></trkpt>
<trkpt lat="46.60014657083265" lon="7.103066602023175"><ele></ele><time>2015-8-25T3:52:50Z</time></trkpt>
<trkpt lat="46.60078637003149" lon="7.102750130112433"><ele></ele><time>2015-8-25T3:52:53Z</time></trkpt>
<trkpt lat="46.601255435372195" lon="7.102176660634155"><ele></ele><time>2015-8-25T3:52:56Z</time></trkpt>
<trkpt lat="46.60087890233991" lon="7.102929926593097"><ele></ele><time>2015-8-25T3:52:59Z</time></trkpt>
<trkpt lat="46.60069516722103" lon="7.103080122171696"><ele></ele><time>2015-8-25T3:53:2Z</time></trkpt>
<trkpt lat="46.60002519312687" lon="7.103395922146693"><ele></ele><time>2015-8-25T3:53:5Z</time></trkpt>
<trkpt lat="46.59967524857712" lon="7.103368413335988"><ele></ele><time>2015-8-25T3:53:8Z</time></trkpt>
<trkpt lat="46.59909846147649" lon="7.104562140136134"><ele></ele><time>2015-8-25T3:53:11Z</time></trkpt>
<trkpt lat="46.59905403189825" lon="7.1047995979467675"><ele></ele><time>2015-8-25T3:53:14Z</time></trkpt>
<trkpt lat="46.59973167787675" lon="7.106219610512923"><ele></ele><time>2015-8-25T3:53:17Z</time></trkpt>
<trkpt lat="46.60060808724447" lon="7.106406064720744"><ele></ele><time>2015-8-25T3:53:20Z</time></trkpt>
<trkpt lat="46.60198795729412" lon="7.108412927747994"><ele></ele><time>2015-8-25T3:53:23Z</time></trkpt>
<trkpt lat="46.60164964020176" lon="7.109417150247393"><ele></ele><time>2015-8-25T3:53:26Z</time></trkpt>
<trkpt lat="46.601514759401105" lon="7.110109826063532"><ele></ele><time>2015-8-25T3:53:29Z</time></trkpt>
<trkpt lat="46.60163381793606" lon="7.112255016711111"><ele></ele><time>2015-8-25T3:53:32Z</time></trkpt>
<trkpt lat="46.60224825364847" lon="7.114153214767987"><ele></ele><time>2015-8-25T3:53:35Z</time></trkpt>
<trkpt lat="46.60275156850937" lon="7.115016491858063"><ele></ele><time>2015-8-25T3:53:38Z</time></trkpt>
<trkpt lat="46.60282129983972" lon="7.115293517544433"><ele></ele><time>2015-8-25T3:53:41Z</time></trkpt>
<trkpt lat="46.60287822898546" lon="7.1183063179500765"><ele></ele><time>2015-8-25T3:53:44Z</time></trkpt>
<trkpt lat="46.602953318886804" lon="7.118844273085283"><ele></ele><time>2015-8-25T3:53:47Z</time></trkpt>
<trkpt lat="46.6032328343656" lon="7.119803764354817"><ele></ele><time>2015-8-25T3:53:50Z</time></trkpt>
<trkpt lat="46.60321116786985" lon="7.12163395588129"><ele></ele><time>2015-8-25T3:53:53Z</time></trkpt>
<trkpt lat="46.60338382553379" lon="7.122075271892214"><ele></ele><time>2015-8-25T3:53:56Z</time></trkpt>
<trkpt lat="46.6037631820806" lon="7.122485332733471"><ele></ele><time>2015-8-25T3:53:59Z</time></trkpt>
<trkpt lat="46.60387372798804" lon="7.123003675764876"><ele></ele><time>2015-8-25T3:54:2Z</time></trkpt>
<trkpt lat="46.60380783689828" lon="7.123413213437394"><ele></ele><time>2015-8-25T3:54:5Z</time></trkpt>
<trkpt lat="46.603622587217416" lon="7.123824338252762"><ele></ele><time>2015-8-25T3:54:8Z</time></trkpt>
<trkpt lat="46.60301555355608" lon="7.124490254320256"><ele></ele><time>2015-8-25T3:54:11Z</time></trkpt>
<trkpt lat="46.602464072155165" lon="7.126044237517012"><ele></ele><time>2015-8-25T3:54:14Z</time></trkpt>
<trkpt lat="46.6024039623842" lon="7.126553352702883"><ele></ele><time>2015-8-25T3:54:17Z</time></trkpt>
<trkpt lat="46.60307863652875" lon="7.129706913591148"><ele></ele><time>2015-8-25T3:54:20Z</time></trkpt>
<trkpt lat="46.60303411096685" lon="7.130493554899494"><ele></ele><time>2015-8-25T3:54:23Z</time></trkpt>
<trkpt lat="46.603644042897926" lon="7.131411319059985"><ele></ele><time>2015-8-25T3:54:26Z</time></trkpt>
<trkpt lat="46.603960345286794" lon="7.132816478635421"><ele></ele><time>2015-8-25T3:54:29Z</time></trkpt>
<trkpt lat="46.60401439182572" lon="7.133573200923373"><ele></ele><time>2015-8-25T3:54:32Z</time></trkpt>
<trkpt lat="46.604110943668125" lon="7.133927676730699"><ele></ele><time>2015-8-25T3:54:35Z</time></trkpt>
<trkpt lat="46.605057891229094" lon="7.135812478235582"><ele></ele><time>2015-8-25T3:54:38Z</time></trkpt>
<trkpt lat="46.605947244438106" lon="7.138176303818813"><ele></ele><time>2015-8-25T3:54:41Z</time></trkpt>
<trkpt lat="46.606716929286016" lon="7.139395153551218"><ele></ele><time>2015-8-25T3:54:44Z</time></trkpt>
<trkpt lat="46.606750785978114" lon="7.1396781287137845"><ele></ele><time>2015-8-25T3:54:47Z</time></trkpt>
<trkpt lat="46.60654993452771" lon="7.140608009954532"><ele></ele><time>2015-8-25T3:54:50Z</time></trkpt>
<trkpt lat="46.6069520467815" lon="7.142974160388544"><ele></ele><time>2015-8-25T3:54:53Z</time></trkpt>
<trkpt lat="46.606824803088124" lon="7.143250925694569"><ele></ele><time>2015-8-25T3:54:56Z</time></trkpt>
<trkpt lat="46.60664467347438" lon="7.143346471504955"><ele></ele><time>2015-8-25T3:54:59Z</time></trkpt>
<trkpt lat="46.60617761243564" lon="7.14426762363414"><ele></ele><time>2015-8-25T3:55:2Z</time></trkpt>
<trkpt lat="46.605643586418566" lon="7.144891717509877"><ele></ele><time>2015-8-25T3:55:5Z</time></trkpt>
<trkpt lat="46.60574843026866" lon="7.145525563067431"><ele></ele><time>2015-8-25T3:55:8Z</time></trkpt>
<trkpt lat="46.605532834142224" lon="7.146119328683203"><ele></ele><time>2015-8-25T3:55:11Z</time></trkpt>
<trkpt lat="46.60528757095644" lon="7.146489211868099"><ele></ele><time>2015-8-25T3:55:14Z</time></trkpt>
<trkpt lat="46.60523902880631" lon="7.146980138807248"><ele></ele><time>2015-8-25T3:55:17Z</time></trkpt>
<trkpt lat="46.60530607751748" lon="7.147282393880682"><ele></ele><time>2015-8-25T3:55:20Z</time></trkpt>
<trkpt lat="46.605532720078294" lon="7.1474911976780975"><ele></ele><time>2015-8-25T3:55:23Z</time></trkpt>
<trkpt lat="46.60563220709727" lon="7.1477813004145645"><ele></ele><time>2015-8-25T3:55:26Z</time></trkpt>
<trkpt lat="46.605470007012855" lon="7.14823073175725"><ele></ele><time>2015-8-25T3:55:29Z</time></trkpt>
<trkpt lat="46.605448621452254" lon="7.148760300567359"><ele></ele><time>2015-8-25T3:55:32Z</time></trkpt>
<trkpt lat="46.605246853301296" lon="7.14945532043411"><ele></ele><time>2015-8-25T3:55:35Z</time></trkpt>
<trkpt lat="46.60484065839489" lon="7.149772809446296"><ele></ele><time>2015-8-25T3:55:38Z</time></trkpt>
<trkpt lat="46.60445289851202" lon="7.150327172383462"><ele></ele><time>2015-8-25T3:55:41Z</time></trkpt>
<trkpt lat="46.60373564218107" lon="7.151023761821449"><ele></ele><time>2015-8-25T3:55:44Z</time></trkpt>
<trkpt lat="46.60333931439508" lon="7.152414304897127"><ele></ele><time>2015-8-25T3:55:47Z</time></trkpt>
<trkpt lat="46.602959844924015" lon="7.153320792784836"><ele></ele><time>2015-8-25T3:55:50Z</time></trkpt>
<trkpt lat="46.604223882905245" lon="7.151305835279266"><ele></ele><time>2015-8-25T3:55:53Z</time></trkpt>
<trkpt lat="46.6052770717564" lon="7.1512873582637475"><ele></ele><time>2015-8-25T3:55:56Z</time></trkpt>
<trkpt lat="46.60594612406092" lon="7.150954625881506"><ele></ele><time>2015-8-25T3:55:59Z</time></trkpt>
<trkpt lat="46.6064499582952" lon="7.1510951293763805"><ele></ele><time>2015-8-25T3:56:2Z</time></trkpt>
<trkpt lat="46.60707316627335" lon="7.150545470855653"><ele></ele><time>2015-8-25T3:56:5Z</time></trkpt>
<trkpt lat="46.60740637736493" lon="7.149195577443596"><ele></ele><time>2015-8-25T3:56:8Z</time></trkpt>
<trkpt lat="46.60742298465267" lon="7.148692076221748"><ele></ele><time>2015-8-25T3:56:11Z</time></trkpt>
<trkpt lat="46.60776148725757" lon="7.146849493798452"><ele></ele><time>2015-8-25T3:56:14Z</time></trkpt>
<trkpt lat="46.60799719376203" lon="7.146538618927817"><ele></ele><time>2015-8-25T3:56:17Z</time></trkpt>
<trkpt lat="46.60826206420336" lon="7.146461517124495"><ele></ele><time>2015-8-25T3:56:20Z</time></trkpt>
<trkpt lat="46.608877562396536" lon="7.145843042806727"><ele></ele><time>2015-8-25T3:56:23Z</time></trkpt>
<trkpt lat="46.60996881465816" lon="7.145399771961751"><ele></ele><time>2015-8-25T3:56:26Z</time></trkpt>
<trkpt lat="46.610236869009334" lon="7.145378577718869"><ele></ele><time>2015-8-25T3:56:29Z</time></trkpt>
<trkpt lat="46.61035002160545" lon="7.145530798453475"><ele></ele><time>2015-8-25T3:56:32Z</time></trkpt>
<trkpt lat="46.6121044781741" lon="7.1514962052780096"><ele></ele><time>2015-8-25T3:56:35Z</time></trkpt>
<trkpt lat="46.612444822075645" lon="7.153591700301563"><ele></ele><time>2015-8-25T3:56:38Z</time></trkpt>
<trkpt lat="46.61237563619944" lon="7.155189123405972"><ele></ele><time>2015-8-25T3:56:41Z</time></trkpt>
<trkpt lat="46.61249846825012" lon="7.157333894394473"><ele></ele><time>2015-8-25T3:56:44Z</time></trkpt>
<trkpt lat="46.61322833351662" lon="7.158825489371316"><ele></ele><time>2015-8-25T3:56:47Z</time></trkpt>
<trkpt lat="46.61343082710808" lon="7.1594516277271545"><ele></ele><time>2015-8-25T3:56:50Z</time></trkpt>
<trkpt lat="46.613197765678144" lon="7.161466798386771"><ele></ele><time>2015-8-25T3:56:53Z</time></trkpt>
<trkpt lat="46.61299079539231" lon="7.162412185877985"><ele></ele><time>2015-8-25T3:56:56Z</time></trkpt>
<trkpt lat="46.61304810201066" lon="7.1635941228503315"><ele></ele><time>2015-8-25T3:56:59Z</time></trkpt>
<trkpt lat="46.61292689267057" lon="7.163903410302428"><ele></ele><time>2015-8-25T3:57:2Z</time></trkpt>
<trkpt lat="46.61290484047859" lon="7.164258886522491"><ele></ele><time>2015-8-25T3:57:5Z</time></trkpt>
<trkpt lat="46.6129791771642" lon="7.16476339753447"><ele></ele><time>2015-8-25T3:57:8Z</time></trkpt>
<trkpt lat="46.612671117872175" lon="7.165849848284477"><ele></ele><time>2015-8-25T3:57:11Z</time></trkpt>
<trkpt lat="46.61261561314771" lon="7.166604553848945"><ele></ele><time>2015-8-25T3:57:14Z</time></trkpt>
<trkpt lat="46.612394312585785" lon="7.167424128146424"><ele></ele><time>2015-8-25T3:57:17Z</time></trkpt>
<trkpt lat="46.612603693463285" lon="7.167403936972434"><ele></ele><time>2015-8-25T3:57:20Z</time></trkpt>
<trkpt lat="46.61242557754274" lon="7.167406443677927"><ele></ele><time>2015-8-25T3:57:23Z</time></trkpt>
<trkpt lat="46.61259648429271" lon="7.167436961416225"><ele></ele><time>2015-8-25T3:57:26Z</time></trkpt>
<trkpt lat="46.612447873865605" lon="7.167387669163643"><ele></ele><time>2015-8-25T3:57:29Z</time></trkpt>
<trkpt lat="46.612546780778324" lon="7.167377531411584"><ele></ele><time>2015-8-25T3:57:32Z</time></trkpt>
<trkpt lat="46.612612065781626" lon="7.167846586504475"><ele></ele><time>2015-8-25T3:57:35Z</time></trkpt>
<trkpt lat="46.612743488845304" lon="7.1680997262740975"><ele></ele><time>2015-8-25T3:57:38Z</time></trkpt>
<trkpt lat="46.61346818172141" lon="7.168478118112394"><ele></ele><time>2015-8-25T3:57:41Z</time></trkpt>
<trkpt lat="46.613554093681806" lon="7.168605107980986"><ele></ele><time>2015-8-25T3:57:44Z</time></trkpt>
<trkpt lat="46.61324479435282" lon="7.168898461497914"><ele></ele><time>2015-8-25T3:57:47Z</time></trkpt>
<trkpt lat="46.61299558933514" lon="7.169380159398797"><ele></ele><time>2015-8-25T3:57:50Z</time></trkpt>
<trkpt lat="46.61283295897488" lon="7.170351951949542"><ele></ele><time>2015-8-25T3:57:53Z</time></trkpt>
<trkpt lat="46.612775660180915" lon="7.172675082191645"><ele></ele><time>2015-8-25T3:57:56Z</time></trkpt>
<trkpt lat="46.61318457819894" lon="7.174342431579357"><ele></ele><time>2015-8-25T3:57:59Z</time></trkpt>
<trkpt lat="46.61307769973499" lon="7.1747567451492955"><ele></ele><time>2015-8-25T3:58:2Z</time></trkpt>
<trkpt lat="46.612404947160115" lon="7.175656933716324"><ele></ele><time>2015-8-25T3:58:5Z</time></trkpt>
<trkpt lat="46.61227577320699" lon="7.176051967905524"><ele></ele><time>2015-8-25T3:58:8Z</time></trkpt>
<trkpt lat="46.61214919379448" lon="7.176626040013084"><ele></ele><time>2015-8-25T3:58:11Z</time></trkpt>
<trkpt lat="46.61217850500511" lon="7.177810825626809"><ele></ele><time>2015-8-25T3:58:14Z</time></trkpt>
<trkpt lat="46.612129213712606" lon="7.178070243873707"><ele></ele><time>2015-8-25T3:58:17Z</time></trkpt>
<trkpt lat="46.61150783215899" lon="7.179446024908668"><ele></ele><time>2015-8-25T3:58:20Z</time></trkpt>
<trkpt lat="46.610898171515686" lon="7.181465370315075"><ele></ele><time>2015-8-25T3:58:23Z</time></trkpt>
<trkpt lat="46.61078584972043" lon="7.181653036583977"><ele></ele><time>2015-8-25T3:58:26Z</time></trkpt>
<trkpt lat="46.61042090559183" lon="7.181429893898051"><ele></ele><time>2015-8-25T3:58:29Z</time></trkpt>
<trkpt lat="46.6102853650637" lon="7.181655193973829"><ele></ele><time>2015-8-25T3:58:32Z</time></trkpt>
<trkpt lat="46.6093633450346" lon="7.18596438263401"><ele></ele><time>2015-8-25T3:58:35Z</time></trkpt>
<trkpt lat="46.609162835581564" lon="7.186612547779666"><ele></ele><time>2015-8-25T3:58:38Z</time></trkpt>
<trkpt lat="46.60857259591137" lon="7.18981986389483"><ele></ele><time>2015-8-25T3:58:41Z</time></trkpt>
<trkpt lat="46.60748166117039" lon="7.195050721685336"><ele></ele><time>2015-8-25T3:58:44Z</time></trkpt>
<trkpt lat="46.60697819459202" lon="7.197327397196996"><ele></ele><time>2015-8-25T3:58:47Z</time></trkpt>
<trkpt lat="46.606801577188406" lon="7.197813289503259"><ele></ele><time>2015-8-25T3:58:50Z</time></trkpt>
<trkpt lat="46.6065386282157" lon="7.198194236425662"><ele></ele><time>2015-8-25T3:58:53Z</time></trkpt>
<trkpt lat="46.604528697796454" lon="7.1995802677598455"><ele></ele><time>2015-8-25T3:58:56Z</time></trkpt>
<trkpt lat="46.60308630787153" lon="7.200943860233713"><ele></ele><time>2015-8-25T3:58:59Z</time></trkpt>
<trkpt lat="46.60247239512687" lon="7.201928625720383"><ele></ele><time>2015-8-25T3:59:2Z</time></trkpt>
<trkpt lat="46.601807003436505" lon="7.203575225598355"><ele></ele><time>2015-8-25T3:59:5Z</time></trkpt>
<trkpt lat="46.60162501787595" lon="7.204241077650868"><ele></ele><time>2015-8-25T3:59:8Z</time></trkpt>
<trkpt lat="46.60087232693966" lon="7.2079549912110314"><ele></ele><time>2015-8-25T3:59:11Z</time></trkpt>
<trkpt lat="46.60016564684534" lon="7.211961855114378"><ele></ele><time>2015-8-25T3:59:14Z</time></trkpt>
<trkpt lat="46.599812078463465" lon="7.212866249410829"><ele></ele><time>2015-8-25T3:59:17Z</time></trkpt>
<trkpt lat="46.59903621608482" lon="7.2143841823920525"><ele></ele><time>2015-8-25T3:59:20Z</time></trkpt>
<trkpt lat="46.598998659896544" lon="7.214631866606957"><ele></ele><time>2015-8-25T3:59:23Z</time></trkpt>
<trkpt lat="46.5994101195048" lon="7.215056428619265"><ele></ele><time>2015-8-25T3:59:26Z</time></trkpt>
<trkpt lat="46.59934582280229" lon="7.215408801904498"><ele></ele><time>2015-8-25T3:59:29Z</time></trkpt>
<trkpt lat="46.598950344124695" lon="7.216349069097891"><ele></ele><time>2015-8-25T3:59:32Z</time></trkpt>
<trkpt lat="46.59882166720946" lon="7.217039901688888"><ele></ele><time>2015-8-25T3:59:35Z</time></trkpt>
<trkpt lat="46.59883513301961" lon="7.218433145508194"><ele></ele><time>2015-8-25T3:59:38Z</time></trkpt>
<trkpt lat="46.59904178317981" lon="7.220736339129295"><ele></ele><time>2015-8-25T3:59:41Z</time></trkpt>
<trkpt lat="46.598958936087236" lon="7.222356477494041"><ele></ele><time>2015-8-25T3:59:44Z</time></trkpt>
<trkpt lat="46.599061480729574" lon="7.224766284721651"><ele></ele><time>2015-8-25T3:59:47Z</time></trkpt>
<trkpt lat="46.59888156166645" lon="7.22684172503587"><ele></ele><time>2015-8-25T3:59:50Z</time></trkpt>
<trkpt lat="46.598637448002776" lon="7.228393292457475"><ele></ele><time>2015-8-25T3:59:53Z</time></trkpt>
<trkpt lat="46.59864415179945" lon="7.2284773634307085"><ele></ele><time>2015-8-25T3:59:56Z</time></trkpt>
<trkpt lat="46.59880147965869" lon="7.228515675492466"><ele></ele><time>2015-8-25T3:59:59Z</time></trkpt>
<trkpt lat="46.598852926805954" lon="7.229378345196788"><ele></ele><time>2015-8-25T4:0:2Z</time></trkpt>
<trkpt lat="46.59901409755452" lon="7.230035578613762"><ele></ele><time>2015-8-25T4:0:5Z</time></trkpt>
<trkpt lat="46.59933327032566" lon="7.230556947745187"><ele></ele><time>2015-8-25T4:0:8Z</time></trkpt>
<trkpt lat="46.59960826160603" lon="7.231503278487044"><ele></ele><time>2015-8-25T4:0:11Z</time></trkpt>
<trkpt lat="46.5995888092811" lon="7.231806954730349"><ele></ele><time>2015-8-25T4:0:14Z</time></trkpt>
<trkpt lat="46.59977019103636" lon="7.231952975502297"><ele></ele><time>2015-8-25T4:0:17Z</time></trkpt>
<trkpt lat="46.59979331643382" lon="7.232374838657986"><ele></ele><time>2015-8-25T4:0:20Z</time></trkpt>
<trkpt lat="46.5995711719423" lon="7.233518710280505"><ele></ele><time>2015-8-25T4:0:23Z</time></trkpt>
<trkpt lat="46.59958751055245" lon="7.233816436872868"><ele></ele><time>2015-8-25T4:0:26Z</time></trkpt>
<trkpt lat="46.600017398108484" lon="7.2348442464142675"><ele></ele><time>2015-8-25T4:0:29Z</time></trkpt>
<trkpt lat="46.60028024638833" lon="7.235269975370375"><ele></ele><time>2015-8-25T4:0:32Z</time></trkpt>
<trkpt lat="46.60050007992594" lon="7.236448902078093"><ele></ele><time>2015-8-25T4:0:35Z</time></trkpt>
<trkpt lat="46.600294786255525" lon="7.237442570360547"><ele></ele><time>2015-8-25T4:0:38Z</time></trkpt>
<trkpt lat="46.60030693271986" lon="7.237798970227924"><ele></ele><time>2015-8-25T4:0:41Z</time></trkpt>
<trkpt lat="46.60020357761884" lon="7.238091830254174"><ele></ele><time>2015-8-25T4:0:44Z</time></trkpt>
<trkpt lat="46.6000711403735" lon="7.2382327247965765"><ele></ele><time>2015-8-25T4:0:47Z</time></trkpt>
<trkpt lat="46.59965866351598" lon="7.238355754047482"><ele></ele><time>2015-8-25T4:0:50Z</time></trkpt>
<trkpt lat="46.59976232298329" lon="7.239568957933518"><ele></ele><time>2015-8-25T4:0:53Z</time></trkpt>
<trkpt lat="46.59965376685105" lon="7.240069102705107"><ele></ele><time>2015-8-25T4:0:56Z</time></trkpt>
<trkpt lat="46.59968843896192" lon="7.241486487329319"><ele></ele><time>2015-8-25T4:0:59Z</time></trkpt>
<trkpt lat="46.59960485409093" lon="7.242322748267962"><ele></ele><time>2015-8-25T4:1:2Z</time></trkpt>
<trkpt lat="46.60001713575173" lon="7.243546610142352"><ele></ele><time>2015-8-25T4:1:5Z</time></trkpt>
<trkpt lat="46.60022642583864" lon="7.243863707066359"><ele></ele><time>2015-8-25T4:1:8Z</time></trkpt>
<trkpt lat="46.600202534199724" lon="7.244018520177972"><ele></ele><time>2015-8-25T4:1:11Z</time></trkpt>
<trkpt lat="46.60035414927283" lon="7.244697881380055"><ele></ele><time>2015-8-25T4:1:14Z</time></trkpt>
<trkpt lat="46.60143278064524" lon="7.246563155832719"><ele></ele><time>2015-8-25T4:1:17Z</time></trkpt>
<trkpt lat="46.60163300674813" lon="7.24744603211221"><ele></ele><time>2015-8-25T4:1:20Z</time></trkpt>
<trkpt lat="46.601872470049415" lon="7.247848122953615"><ele></ele><time>2015-8-25T4:1:23Z</time></trkpt>
<trkpt lat="46.602371352320255" lon="7.248324069377418"><ele></ele><time>2015-8-25T4:1:26Z</time></trkpt>
<trkpt lat="46.602449802782445" lon="7.2485363867502395"><ele></ele><time>2015-8-25T4:1:29Z</time></trkpt>
<trkpt lat="46.603507432572655" lon="7.2527135618234375"><ele></ele><time>2015-8-25T4:1:32Z</time></trkpt>
<trkpt lat="46.603621457546474" lon="7.255327636593149"><ele></ele><time>2015-8-25T4:1:35Z</time></trkpt>
<trkpt lat="46.60380457764813" lon="7.2565576074445595"><ele></ele><time>2015-8-25T4:1:38Z</time></trkpt>
<trkpt lat="46.603948319069445" lon="7.256979810830354"><ele></ele><time>2015-8-25T4:1:41Z</time></trkpt>
<trkpt lat="46.60483778647551" lon="7.258075700256683"><ele></ele><time>2015-8-25T4:1:44Z</time></trkpt>
<trkpt lat="46.60490466932379" lon="7.258317772934002"><ele></ele><time>2015-8-25T4:1:47Z</time></trkpt>
<trkpt lat="46.60505543698347" lon="7.259463001153605"><ele></ele><time>2015-8-25T4:1:50Z</time></trkpt>
<trkpt lat="46.60488938327612" lon="7.259851244875275"><ele></ele><time>2015-8-25T4:1:53Z</time></trkpt>
<trkpt lat="46.60488418239011" lon="7.260054254803316"><ele></ele><time>2015-8-25T4:1:56Z</time></trkpt>
<trkpt lat="46.6053487570756" lon="7.261803664933903"><ele></ele><time>2015-8-25T4:1:59Z</time></trkpt>
<trkpt lat="46.60551463131757" lon="7.262002155709459"><ele></ele><time>2015-8-25T4:2:2Z</time></trkpt>
<trkpt lat="46.60563657991731" lon="7.262417820250478"><ele></ele><time>2015-8-25T4:2:5Z</time></trkpt>
<trkpt lat="46.60551016678272" lon="7.263101109260911"><ele></ele><time>2015-8-25T4:2:8Z</time></trkpt>
<trkpt lat="46.605709553219086" lon="7.264070486738539"><ele></ele><time>2015-8-25T4:2:11Z</time></trkpt>
<trkpt lat="46.606130141404435" lon="7.264900230538635"><ele></ele><time>2015-8-25T4:2:14Z</time></trkpt>
<trkpt lat="46.60622382415314" lon="7.266157363741412"><ele></ele><time>2015-8-25T4:2:17Z</time></trkpt>
<trkpt lat="46.606521919550794" lon="7.266978715025882"><ele></ele><time>2015-8-25T4:2:20Z</time></trkpt>
<trkpt lat="46.6070852187687" lon="7.267027433983766"><ele></ele><time>2015-8-25T4:2:23Z</time></trkpt>
<trkpt lat="46.60765409960447" lon="7.267039611253169"><ele></ele><time>2015-8-25T4:2:26Z</time></trkpt>
<trkpt lat="46.6084012470733" lon="7.2678935083744785"><ele></ele><time>2015-8-25T4:2:29Z</time></trkpt>
<trkpt lat="46.60865428809071" lon="7.268354273000479"><ele></ele><time>2015-8-25T4:2:32Z</time></trkpt>
<trkpt lat="46.608655202552875" lon="7.26873129183608"><ele></ele><time>2015-8-25T4:2:35Z</time></trkpt>
<trkpt lat="46.60833173564232" lon="7.269156577165173"><ele></ele><time>2015-8-25T4:2:38Z</time></trkpt>
<trkpt lat="46.60834011180509" lon="7.269444412673685"><ele></ele><time>2015-8-25T4:2:41Z</time></trkpt>
<trkpt lat="46.608555857273394" lon="7.269705434579265"><ele></ele><time>2015-8-25T4:2:44Z</time></trkpt>
<trkpt lat="46.608549313695185" lon="7.269989329968401"><ele></ele><time>2015-8-25T4:2:47Z</time></trkpt>
<trkpt lat="46.60871048579159" lon="7.2706033961253445"><ele></ele><time>2015-8-25T4:2:50Z</time></trkpt>
<trkpt lat="46.60931573301198" lon="7.2711751518542656"><ele></ele><time>2015-8-25T4:2:53Z</time></trkpt>
<trkpt lat="46.60947908246015" lon="7.27188753801032"><ele></ele><time>2015-8-25T4:2:56Z</time></trkpt>
<trkpt lat="46.60940188111284" lon="7.2720797322745305"><ele></ele><time>2015-8-25T4:2:59Z</time></trkpt>
<trkpt lat="46.60946935027295" lon="7.272346196306066"><ele></ele><time>2015-8-25T4:3:2Z</time></trkpt>
<trkpt lat="46.60909403810179" lon="7.272629040152038"><ele></ele><time>2015-8-25T4:3:5Z</time></trkpt>
<trkpt lat="46.6088225851828" lon="7.273144212385713"><ele></ele><time>2015-8-25T4:3:8Z</time></trkpt>
<trkpt lat="46.60882635926647" lon="7.274137479145218"><ele></ele><time>2015-8-25T4:3:11Z</time></trkpt>
<trkpt lat="46.608936971231984" lon="7.2745084585087385"><ele></ele><time>2015-8-25T4:3:14Z</time></trkpt>
<trkpt lat="46.60919755758867" lon="7.2748911877072056"><ele></ele><time>2015-8-25T4:3:17Z</time></trkpt>
<trkpt lat="46.609199817803116" lon="7.275037033220006"><ele></ele><time>2015-8-25T4:3:20Z</time></trkpt>
<trkpt lat="46.60910878772401" lon="7.275157393865159"><ele></ele><time>2015-8-25T4:3:23Z</time></trkpt>
<trkpt lat="46.60921983307933" lon="7.275643910698212"><ele></ele><time>2015-8-25T4:3:26Z</time></trkpt>
<trkpt lat="46.609341748815766" lon="7.275976397031146"><ele></ele><time>2015-8-25T4:3:29Z</time></trkpt>
<trkpt lat="46.60943683482184" lon="7.27623071226578"><ele></ele><time>2015-8-25T4:3:32Z</time></trkpt>
<trkpt lat="46.610240808988095" lon="7.277230708344593"><ele></ele><time>2015-8-25T4:3:35Z</time></trkpt>
<trkpt lat="46.61046517914872" lon="7.277931194625846"><ele></ele><time>2015-8-25T4:3:38Z</time></trkpt>
<trkpt lat="46.61037866674953" lon="7.278482637625984"><ele></ele><time>2015-8-25T4:3:41Z</time></trkpt>
<trkpt lat="46.61059324442716" lon="7.2784601828649"><ele></ele><time>2015-8-25T4:3:44Z</time></trkpt>
<trkpt lat="46.61057011235337" lon="7.278357754850979"><ele></ele><time>2015-8-25T4:3:47Z</time></trkpt>
<trkpt lat="46.61068041977189" lon="7.278291793654688"><ele></ele><time>2015-8-25T4:3:50Z</time></trkpt>
<trkpt lat="46.61071730358836" lon="7.278122899470503"><ele></ele><time>2015-8-25T4:3:53Z</time></trkpt>
<trkpt lat="46.610813946281645" lon="7.278167243786773"><ele></ele><time>2015-8-25T4:3:56Z</time></trkpt>
<trkpt lat="46.61086775484397" lon="7.2783376504297985"><ele></ele><time>2015-8-25T4:3:59Z</time></trkpt>
<trkpt lat="46.61102156311793" lon="7.278338494919877"><ele></ele><time>2015-8-25T4:4:2Z</time></trkpt>
<trkpt lat="46.61108233456828" lon="7.278212265689594"><ele></ele><time>2015-8-25T4:4:5Z</time></trkpt>
<trkpt lat="46.6110815040436" lon="7.277826278228839"><ele></ele><time>2015-8-25T4:4:8Z</time></trkpt>
<trkpt lat="46.61086475271947" lon="7.277564082883599"><ele></ele><time>2015-8-25T4:4:11Z</time></trkpt>
<trkpt lat="46.61075044294437" lon="7.276575346880204"><ele></ele><time>2015-8-25T4:4:14Z</time></trkpt>
<trkpt lat="46.6111729719585" lon="7.27676311921632"><ele></ele><time>2015-8-25T4:4:17Z</time></trkpt>
<trkpt lat="46.61101807836992" lon="7.27654426092901"><ele></ele><time>2015-8-25T4:4:20Z</time></trkpt>
<trkpt lat="46.610769163471225" lon="7.2751262812654325"><ele></ele><time>2015-8-25T4:4:23Z</time></trkpt>
<trkpt lat="46.611303683154034" lon="7.2749033441268205"><ele></ele><time>2015-8-25T4:4:26Z</time></trkpt>
<trkpt lat="46.61147131245944" lon="7.275363350784513"><ele></ele><time>2015-8-25T4:4:29Z</time></trkpt>
<trkpt lat="46.611598131863396" lon="7.275317925981664"><ele></ele><time>2015-8-25T4:4:32Z</time></trkpt>
<trkpt lat="46.61192185263091" lon="7.274771186623387"><ele></ele><time>2015-8-25T4:4:35Z</time></trkpt>
<trkpt lat="46.61181776441609" lon="7.274004655762468"><ele></ele><time>2015-8-25T4:4:38Z</time></trkpt>
<trkpt lat="46.61191717523499" lon="7.273944058564114"><ele></ele><time>2015-8-25T4:4:41Z</time></trkpt>
<trkpt lat="46.61227725561806" lon="7.2742976227377945"><ele></ele><time>2015-8-25T4:4:44Z</time></trkpt>
<trkpt lat="46.61272667624472" lon="7.2752068280367785"><ele></ele><time>2015-8-25T4:4:47Z</time></trkpt>
<trkpt lat="46.612801946041486" lon="7.275200628505214"><ele></ele><time>2015-8-25T4:4:50Z</time></trkpt>
<trkpt lat="46.61258041191488" lon="7.275195003527063"><ele></ele><time>2015-8-25T4:4:53Z</time></trkpt>
<trkpt lat="46.612775123420526" lon="7.275224012960667"><ele></ele><time>2015-8-25T4:4:56Z</time></trkpt>
<trkpt lat="46.612760700916816" lon="7.275505058140025"><ele></ele><time>2015-8-25T4:4:59Z</time></trkpt>
<trkpt lat="46.61329326025616" lon="7.276916762904453"><ele></ele><time>2015-8-25T4:5:2Z</time></trkpt>
<trkpt lat="46.613116048911955" lon="7.277796186658451"><ele></ele><time>2015-8-25T4:5:5Z</time></trkpt>
<trkpt lat="46.61295267896549" lon="7.278111088691945"><ele></ele><time>2015-8-25T4:5:8Z</time></trkpt>
<trkpt lat="46.61269634091602" lon="7.279059324784683"><ele></ele><time>2015-8-25T4:5:11Z</time></trkpt>
<trkpt lat="46.61268745035843" lon="7.279347494824882"><ele></ele><time>2015-8-25T4:5:14Z</time></trkpt>
<trkpt lat="46.61236397399037" lon="7.280251974567502"><ele></ele><time>2015-8-25T4:5:17Z</time></trkpt>
<trkpt lat="46.61211452078199" lon="7.280613476575969"><ele></ele><time>2015-8-25T4:5:20Z</time></trkpt>
<trkpt lat="46.612799924628305" lon="7.27990925569291"><ele></ele><time>2015-8-25T4:5:23Z</time></trkpt>
<trkpt lat="46.61321735753755" lon="7.279248190759115"><ele></ele><time>2015-8-25T4:5:26Z</time></trkpt>
<trkpt lat="46.61381918617019" lon="7.278920063235906"><ele></ele><time>2015-8-25T4:5:29Z</time></trkpt>
<trkpt lat="46.61404877775868" lon="7.278381282847799"><ele></ele><time>2015-8-25T4:5:32Z</time></trkpt>
<trkpt lat="46.61415271620538" lon="7.278250780617542"><ele></ele><time>2015-8-25T4:5:35Z</time></trkpt>
<trkpt lat="46.61422379374229" lon="7.278310043698776"><ele></ele><time>2015-8-25T4:5:38Z</time></trkpt>
<trkpt lat="46.614044582534454" lon="7.278595943634447"><ele></ele><time>2015-8-25T4:5:41Z</time></trkpt>
<trkpt lat="46.61397005508674" lon="7.279207820708267"><ele></ele><time>2015-8-25T4:5:44Z</time></trkpt>
<trkpt lat="46.61362739445604" lon="7.27959027367743"><ele></ele><time>2015-8-25T4:5:47Z</time></trkpt>
<trkpt lat="46.61295764222373" lon="7.281433262797397"><ele></ele><time>2015-8-25T4:5:50Z</time></trkpt>
<trkpt lat="46.612760830227764" lon="7.2816569681965335"><ele></ele><time>2015-8-25T4:5:53Z</time></trkpt>
<trkpt lat="46.61215087308139" lon="7.281887948994542"><ele></ele><time>2015-8-25T4:5:56Z</time></trkpt>
<trkpt lat="46.61206797334955" lon="7.282014680239072"><ele></ele><time>2015-8-25T4:5:59Z</time></trkpt>
<trkpt lat="46.6121225379585" lon="7.282101183881695"><ele></ele><time>2015-8-25T4:6:2Z</time></trkpt>
<trkpt lat="46.61293542234597" lon="7.281826122469827"><ele></ele><time>2015-8-25T4:6:5Z</time></trkpt>
<trkpt lat="46.614049153509875" lon="7.280566030181518"><ele></ele><time>2015-8-25T4:6:8Z</time></trkpt>
<trkpt lat="46.61437546583477" lon="7.280362698156712"><ele></ele><time>2015-8-25T4:6:11Z</time></trkpt>
<trkpt lat="46.614574870389276" lon="7.280434036443932"><ele></ele><time>2015-8-25T4:6:14Z</time></trkpt>
<trkpt lat="46.614174964592735" lon="7.2806464179327275"><ele></ele><time>2015-8-25T4:6:17Z</time></trkpt>
<trkpt lat="46.613736325403096" lon="7.281308487829094"><ele></ele><time>2015-8-25T4:6:20Z</time></trkpt>
<trkpt lat="46.61358443358772" lon="7.281881972563334"><ele></ele><time>2015-8-25T4:6:23Z</time></trkpt>
<trkpt lat="46.61296121699002" lon="7.282921556619312"><ele></ele><time>2015-8-25T4:6:26Z</time></trkpt>
<trkpt lat="46.612908907654116" lon="7.2832316016976"><ele></ele><time>2015-8-25T4:6:29Z</time></trkpt>
<trkpt lat="46.613390508929136" lon="7.284448592266338"><ele></ele><time>2015-8-25T4:6:32Z</time></trkpt>
<trkpt lat="46.61337909193095" lon="7.285338835490257"><ele></ele><time>2015-8-25T4:6:35Z</time></trkpt>
<trkpt lat="46.61371527586503" lon="7.286100178944066"><ele></ele><time>2015-8-25T4:6:38Z</time></trkpt>
<trkpt lat="46.61370361954439" lon="7.286376278901195"><ele></ele><time>2015-8-25T4:6:41Z</time></trkpt>
<trkpt lat="46.613892203398464" lon="7.28685447508936"><ele></ele><time>2015-8-25T4:6:44Z</time></trkpt>
<trkpt lat="46.61407038283229" lon="7.287882776226837"><ele></ele><time>2015-8-25T4:6:47Z</time></trkpt>
<trkpt lat="46.61432006971506" lon="7.288422414355212"><ele></ele><time>2015-8-25T4:6:50Z</time></trkpt>
<trkpt lat="46.61450195716423" lon="7.288437593023128"><ele></ele><time>2015-8-25T4:6:53Z</time></trkpt>
<trkpt lat="46.61458770954735" lon="7.288168369258159"><ele></ele><time>2015-8-25T4:6:56Z</time></trkpt>
<trkpt lat="46.614369343548006" lon="7.285020959286133"><ele></ele><time>2015-8-25T4:6:59Z</time></trkpt>
<trkpt lat="46.61472308784919" lon="7.283402583058045"><ele></ele><time>2015-8-25T4:7:2Z</time></trkpt>
<trkpt lat="46.61567939120338" lon="7.28291496202046"><ele></ele><time>2015-8-25T4:7:5Z</time></trkpt>
<trkpt lat="46.61732828634821" lon="7.282762981312688"><ele></ele><time>2015-8-25T4:7:8Z</time></trkpt>
<trkpt lat="46.61801099222325" lon="7.282857641039911"><ele></ele><time>2015-8-25T4:7:11Z</time></trkpt>
<trkpt lat="46.61890308258297" lon="7.282750305077865"><ele></ele><time>2015-8-25T4:7:14Z</time></trkpt>
<trkpt lat="46.619507417768354" lon="7.282830628522394"><ele></ele><time>2015-8-25T4:7:17Z</time></trkpt>
<trkpt lat="46.6201190508214" lon="7.28262864926351"><ele></ele><time>2015-8-25T4:7:20Z</time></trkpt>
<trkpt lat="46.621395451381346" lon="7.282577320215093"><ele></ele><time>2015-8-25T4:7:23Z</time></trkpt>
<trkpt lat="46.622745700816616" lon="7.282319966657454"><ele></ele><time>2015-8-25T4:7:26Z</time></trkpt>
<trkpt lat="46.623395211761704" lon="7.282545299113431"><ele></ele><time>2015-8-25T4:7:29Z</time></trkpt>
<trkpt lat="46.623554385806166" lon="7.2824806810307035"><ele></ele><time>2015-8-25T4:7:32Z</time></trkpt>
<trkpt lat="46.623793360495334" lon="7.282177935942111"><ele></ele><time>2015-8-25T4:7:35Z</time></trkpt>
<trkpt lat="46.624357128146826" lon="7.282211654271358"><ele></ele><time>2015-8-25T4:7:38Z</time></trkpt>
<trkpt lat="46.62448319567713" lon="7.282041506505916"><ele></ele><time>2015-8-25T4:7:41Z</time></trkpt>
<trkpt lat="46.62454505013985" lon="7.2822511407741946"><ele></ele><time>2015-8-25T4:7:44Z</time></trkpt>
<trkpt lat="46.625665537234106" lon="7.282693416452306"><ele></ele><time>2015-8-25T4:7:47Z</time></trkpt>
<trkpt lat="46.626336678834186" lon="7.282653713566505"><ele></ele><time>2015-8-25T4:7:50Z</time></trkpt>
<trkpt lat="46.62893129201214" lon="7.283265866986211"><ele></ele><time>2015-8-25T4:7:53Z</time></trkpt>
<trkpt lat="46.62910488363338" lon="7.283168643846935"><ele></ele><time>2015-8-25T4:7:56Z</time></trkpt>
<trkpt lat="46.62934394299406" lon="7.2828240730474345"><ele></ele><time>2015-8-25T4:7:59Z</time></trkpt>
<trkpt lat="46.62940059781432" lon="7.283178211299157"><ele></ele><time>2015-8-25T4:8:2Z</time></trkpt>
<trkpt lat="46.62954384381165" lon="7.283235297990895"><ele></ele><time>2015-8-25T4:8:5Z</time></trkpt>
<trkpt lat="46.6300085158994" lon="7.281986223562697"><ele></ele><time>2015-8-25T4:8:8Z</time></trkpt>
<trkpt lat="46.631329995921554" lon="7.281355591527363"><ele></ele><time>2015-8-25T4:8:11Z</time></trkpt>
<trkpt lat="46.63223986216025" lon="7.280437440963073"><ele></ele><time>2015-8-25T4:8:14Z</time></trkpt>
<trkpt lat="46.63207934129358" lon="7.280788804277965"><ele></ele><time>2015-8-25T4:8:17Z</time></trkpt>
<trkpt lat="46.6320298612965" lon="7.282133512889055"><ele></ele><time>2015-8-25T4:8:20Z</time></trkpt>
<trkpt lat="46.63159273579531" lon="7.282538090081327"><ele></ele><time>2015-8-25T4:8:23Z</time></trkpt>
<trkpt lat="46.631440758889354" lon="7.283173600687515"><ele></ele><time>2015-8-25T4:8:26Z</time></trkpt>
<trkpt lat="46.631684653921496" lon="7.2841371117882225"><ele></ele><time>2015-8-25T4:8:29Z</time></trkpt>
<trkpt lat="46.63281143010019" lon="7.284455335230859"><ele></ele><time>2015-8-25T4:8:32Z</time></trkpt>
<trkpt lat="46.632847721515894" lon="7.2845732702528245"><ele></ele><time>2015-8-25T4:8:35Z</time></trkpt>
<trkpt lat="46.63275149275883" lon="7.284787591893291"><ele></ele><time>2015-8-25T4:8:38Z</time></trkpt>
<trkpt lat="46.632749392505886" lon="7.285029242414053"><ele></ele><time>2015-8-25T4:8:41Z</time></trkpt>
<trkpt lat="46.63310720434817" lon="7.285669300012172"><ele></ele><time>2015-8-25T4:8:44Z</time></trkpt>
<trkpt lat="46.63328984449346" lon="7.285773243195773"><ele></ele><time>2015-8-25T4:8:47Z</time></trkpt>
<trkpt lat="46.63419130057644" lon="7.286798052789198"><ele></ele><time>2015-8-25T4:8:50Z</time></trkpt>
<trkpt lat="46.63436529810266" lon="7.287370879908768"><ele></ele><time>2015-8-25T4:8:53Z</time></trkpt>
<trkpt lat="46.63474658713065" lon="7.2876174075258495"><ele></ele><time>2015-8-25T4:8:56Z</time></trkpt>
<trkpt lat="46.635777556644975" lon="7.288002849880976"><ele></ele><time>2015-8-25T4:8:59Z</time></trkpt>
<trkpt lat="46.63684883652237" lon="7.288730527396357"><ele></ele><time>2015-8-25T4:9:2Z</time></trkpt>
<trkpt lat="46.639495318908764" lon="7.290135275999479"><ele></ele><time>2015-8-25T4:9:5Z</time></trkpt>
<trkpt lat="46.64030206603799" lon="7.290821871259222"><ele></ele><time>2015-8-25T4:9:8Z</time></trkpt>
<trkpt lat="46.640639016374486" lon="7.290984494047744"><ele></ele><time>2015-8-25T4:9:11Z</time></trkpt>
<trkpt lat="46.64105861770343" lon="7.290883760485422"><ele></ele><time>2015-8-25T4:9:14Z</time></trkpt>
<trkpt lat="46.641232638733925" lon="7.290263338362753"><ele></ele><time>2015-8-25T4:9:17Z</time></trkpt>
<trkpt lat="46.641497512932034" lon="7.289996301378778"><ele></ele><time>2015-8-25T4:9:20Z</time></trkpt>
<trkpt lat="46.64196463667637" lon="7.29005482610167"><ele></ele><time>2015-8-25T4:9:23Z</time></trkpt>
<trkpt lat="46.64209958284855" lon="7.290201515052853"><ele></ele><time>2015-8-25T4:9:26Z</time></trkpt>
<trkpt lat="46.64224684454792" lon="7.290648947525592"><ele></ele><time>2015-8-25T4:9:29Z</time></trkpt>
<trkpt lat="46.64242160660237" lon="7.290708214741937"><ele></ele><time>2015-8-25T4:9:32Z</time></trkpt>
<trkpt lat="46.64253912250136" lon="7.290644349339418"><ele></ele><time>2015-8-25T4:9:35Z</time></trkpt>
<trkpt lat="46.64301145825925" lon="7.289929056113473"><ele></ele><time>2015-8-25T4:9:38Z</time></trkpt>
<trkpt lat="46.643923501460655" lon="7.289649807847185"><ele></ele><time>2015-8-25T4:9:41Z</time></trkpt>
<trkpt lat="46.64549293803272" lon="7.289440491454648"><ele></ele><time>2015-8-25T4:9:44Z</time></trkpt>
<trkpt lat="46.646827433383436" lon="7.289016756240159"><ele></ele><time>2015-8-25T4:9:47Z</time></trkpt>
<trkpt lat="46.65028816871837" lon="7.288810618096597"><ele></ele><time>2015-8-25T4:9:50Z</time></trkpt>
<trkpt lat="46.65122016189113" lon="7.28848904208822"><ele></ele><time>2015-8-25T4:9:53Z</time></trkpt>
<trkpt lat="46.651466429731265" lon="7.288147573077974"><ele></ele><time>2015-8-25T4:9:56Z</time></trkpt>
<trkpt lat="46.65190422501909" lon="7.287789348044994"><ele></ele><time>2015-8-25T4:9:59Z</time></trkpt>
<trkpt lat="46.65189065622292" lon="7.2872850917763925"><ele></ele><time>2015-8-25T4:10:2Z</time></trkpt>
<trkpt lat="46.652008762021424" lon="7.287061970135296"><ele></ele><time>2015-8-25T4:10:5Z</time></trkpt>
<trkpt lat="46.65279424310062" lon="7.286536707814331"><ele></ele><time>2015-8-25T4:10:8Z</time></trkpt>
<trkpt lat="46.65395254726298" lon="7.286276329052793"><ele></ele><time>2015-8-25T4:10:11Z</time></trkpt>
<trkpt lat="46.65418472552393" lon="7.2863386160986074"><ele></ele><time>2015-8-25T4:10:14Z</time></trkpt>
<trkpt lat="46.65465033162912" lon="7.286854373955169"><ele></ele><time>2015-8-25T4:10:17Z</time></trkpt>
<trkpt lat="46.65533959432689" lon="7.286017468372915"><ele></ele><time>2015-8-25T4:10:20Z</time></trkpt>
<trkpt lat="46.65558032343349" lon="7.286015382703324"><ele></ele><time>2015-8-25T4:10:23Z</time></trkpt>
<trkpt lat="46.65595391047199" lon="7.285794283159813"><ele></ele><time>2015-8-25T4:10:26Z</time></trkpt>
<trkpt lat="46.65600640165209" lon="7.284765992682013"><ele></ele><time>2015-8-25T4:10:29Z</time></trkpt>
<trkpt lat="46.656116795007264" lon="7.2845978560863704"><ele></ele><time>2015-8-25T4:10:32Z</time></trkpt>
<trkpt lat="46.65668885452553" lon="7.284967689242346"><ele></ele><time>2015-8-25T4:10:35Z</time></trkpt>
<trkpt lat="46.65746711301628" lon="7.285162851811878"><ele></ele><time>2015-8-25T4:10:38Z</time></trkpt>
<trkpt lat="46.65765846838177" lon="7.285372323513073"><ele></ele><time>2015-8-25T4:10:41Z</time></trkpt>
<trkpt lat="46.65813481344403" lon="7.285378126447006"><ele></ele><time>2015-8-25T4:10:44Z</time></trkpt>
<trkpt lat="46.658791115145654" lon="7.285558364231999"><ele></ele><time>2015-8-25T4:10:47Z</time></trkpt>
<trkpt lat="46.6587606916699" lon="7.285409500297208"><ele></ele><time>2015-8-25T4:10:50Z</time></trkpt>
<trkpt lat="46.658903348219134" lon="7.285608744076181"><ele></ele><time>2015-8-25T4:10:53Z</time></trkpt>
<trkpt lat="46.65947373465999" lon="7.285812782971501"><ele></ele><time>2015-8-25T4:10:56Z</time></trkpt>
<trkpt lat="46.65964882495453" lon="7.286231885520239"><ele></ele><time>2015-8-25T4:10:59Z</time></trkpt>
<trkpt lat="46.65975192218572" lon="7.286258879464825"><ele></ele><time>2015-8-25T4:11:2Z</time></trkpt>
<trkpt lat="46.659989472141156" lon="7.285954458236644"><ele></ele><time>2015-8-25T4:11:5Z</time></trkpt>
<trkpt lat="46.6612018306906" lon="7.28616313332445"><ele></ele><time>2015-8-25T4:11:8Z</time></trkpt>
<trkpt lat="46.661463678060464" lon="7.286375876813243"><ele></ele><time>2015-8-25T4:11:11Z</time></trkpt>
<trkpt lat="46.66168378004971" lon="7.286759106602684"><ele></ele><time>2015-8-25T4:11:14Z</time></trkpt>
<trkpt lat="46.662235721087754" lon="7.287226504250289"><ele></ele><time>2015-8-25T4:11:17Z</time></trkpt>
<trkpt lat="46.66247980439667" lon="7.287153591591326"><ele></ele><time>2015-8-25T4:11:20Z</time></trkpt>
<trkpt lat="46.66265750536607" lon="7.286950505206615"><ele></ele><time>2015-8-25T4:11:23Z</time></trkpt>
<trkpt lat="46.663180614883146" lon="7.287300387322741"><ele></ele><time>2015-8-25T4:11:26Z</time></trkpt>
<trkpt lat="46.66359820088543" lon="7.287395874246877"><ele></ele><time>2015-8-25T4:11:29Z</time></trkpt>
<trkpt lat="46.664191462943144" lon="7.287961593311299"><ele></ele><time>2015-8-25T4:11:32Z</time></trkpt>
<trkpt lat="46.66453688463039" lon="7.287847948707082"><ele></ele><time>2015-8-25T4:11:35Z</time></trkpt>
<trkpt lat="46.66531111423893" lon="7.288332202975186"><ele></ele><time>2015-8-25T4:11:38Z</time></trkpt>
<trkpt lat="46.6657245978512" lon="7.28818696135178"><ele></ele><time>2015-8-25T4:11:41Z</time></trkpt>
<trkpt lat="46.665895504319074" lon="7.288245222557125"><ele></ele><time>2015-8-25T4:11:44Z</time></trkpt>
<trkpt lat="46.66648189608523" lon="7.288665682849103"><ele></ele><time>2015-8-25T4:11:47Z</time></trkpt>
<trkpt lat="46.66683384348487" lon="7.289172802507589"><ele></ele><time>2015-8-25T4:11:50Z</time></trkpt>
<trkpt lat="46.66756685288447" lon="7.288698164955006"><ele></ele><time>2015-8-25T4:11:53Z</time></trkpt>
<trkpt lat="46.667920404886246" lon="7.288593824602163"><ele></ele><time>2015-8-25T4:11:56Z</time></trkpt>
<trkpt lat="46.66885959574736" lon="7.288837021898299"><ele></ele><time>2015-8-25T4:11:59Z</time></trkpt>
<trkpt lat="46.669234346489844" lon="7.2891170766160815"><ele></ele><time>2015-8-25T4:12:2Z</time></trkpt>
<trkpt lat="46.66979057177514" lon="7.289108549689317"><ele></ele><time>2015-8-25T4:12:5Z</time></trkpt>
<trkpt lat="46.6692798010269" lon="7.287874041817976"><ele></ele><time>2015-8-25T4:12:8Z</time></trkpt>
<trkpt lat="46.66855334471275" lon="7.287576035491445"><ele></ele><time>2015-8-25T4:12:11Z</time></trkpt>
<trkpt lat="46.66721417813594" lon="7.286818591916112"><ele></ele><time>2015-8-25T4:12:14Z</time></trkpt>
<trkpt lat="46.66663961188284" lon="7.286043912711754"><ele></ele><time>2015-8-25T4:12:17Z</time></trkpt>
<trkpt lat="46.666249100090894" lon="7.285918503475155"><ele></ele><time>2015-8-25T4:12:20Z</time></trkpt>
<trkpt lat="46.66542492062135" lon="7.2851071013042485"><ele></ele><time>2015-8-25T4:12:23Z</time></trkpt>
<trkpt lat="46.66443914703949" lon="7.283813313748471"><ele></ele><time>2015-8-25T4:12:26Z</time></trkpt>
<trkpt lat="46.66397965693702" lon="7.283436192990051"><ele></ele><time>2015-8-25T4:12:29Z</time></trkpt>
<trkpt lat="46.66336786636699" lon="7.2830974551382734"><ele></ele><time>2015-8-25T4:12:32Z</time></trkpt>
<trkpt lat="46.66246186582096" lon="7.282968923500533"><ele></ele><time>2015-8-25T4:12:35Z</time></trkpt>
<trkpt lat="46.66170816138126" lon="7.283023542760968"><ele></ele><time>2015-8-25T4:12:38Z</time></trkpt>
<trkpt lat="46.66160707819566" lon="7.282875933237133"><ele></ele><time>2015-8-25T4:12:41Z</time></trkpt>
<trkpt lat="46.660782891993954" lon="7.282410955142655"><ele></ele><time>2015-8-25T4:12:44Z</time></trkpt>
<trkpt lat="46.66016388516288" lon="7.282468848840862"><ele></ele><time>2015-8-25T4:12:47Z</time></trkpt>
<trkpt lat="46.65938916001865" lon="7.281618221136387"><ele></ele><time>2015-8-25T4:12:50Z</time></trkpt>
<trkpt lat="46.65941422728926" lon="7.281350755466202"><ele></ele><time>2015-8-25T4:12:53Z</time></trkpt>
<trkpt lat="46.66031506380497" lon="7.2798219322551585"><ele></ele><time>2015-8-25T4:12:56Z</time></trkpt>
<trkpt lat="46.66041590654021" lon="7.279413737458744"><ele></ele><time>2015-8-25T4:12:59Z</time></trkpt>
<trkpt lat="46.660304608947406" lon="7.27868442307782"><ele></ele><time>2015-8-25T4:13:2Z</time></trkpt>
<trkpt lat="46.660069841129" lon="7.278175547816989"><ele></ele><time>2015-8-25T4:13:5Z</time></trkpt>
<trkpt lat="46.659959548301906" lon="7.277500715869185"><ele></ele><time>2015-8-25T4:13:8Z</time></trkpt>
<trkpt lat="46.659743891003735" lon="7.277006761175567"><ele></ele><time>2015-8-25T4:13:11Z</time></trkpt>
<trkpt lat="46.65985405550298" lon="7.275703211327295"><ele></ele><time>2015-8-25T4:13:14Z</time></trkpt>
<trkpt lat="46.659816430613304" lon="7.275201301118331"><ele></ele><time>2015-8-25T4:13:17Z</time></trkpt>
<trkpt lat="46.65971425856722" lon="7.27501513474073"><ele></ele><time>2015-8-25T4:13:20Z</time></trkpt>
<trkpt lat="46.659985410187026" lon="7.275210109060508"><ele></ele><time>2015-8-25T4:13:23Z</time></trkpt>
<trkpt lat="46.659884491951004" lon="7.27519878934058"><ele></ele><time>2015-8-25T4:13:26Z</time></trkpt>
<trkpt lat="46.65989816668676" lon="7.274586491507664"><ele></ele><time>2015-8-25T4:13:29Z</time></trkpt>
<trkpt lat="46.660546601803304" lon="7.274141857923444"><ele></ele><time>2015-8-25T4:13:32Z</time></trkpt>
<trkpt lat="46.661000245654" lon="7.273454979209906"><ele></ele><time>2015-8-25T4:13:35Z</time></trkpt>
<trkpt lat="46.66183409182413" lon="7.272875488392064"><ele></ele><time>2015-8-25T4:13:38Z</time></trkpt>
<trkpt lat="46.66192478731813" lon="7.27272570743174"><ele></ele><time>2015-8-25T4:13:41Z</time></trkpt>
<trkpt lat="46.66204592136309" lon="7.2719674850461535"><ele></ele><time>2015-8-25T4:13:44Z</time></trkpt>
<trkpt lat="46.66217609461384" lon="7.271875205600619"><ele></ele><time>2015-8-25T4:13:47Z</time></trkpt>
<trkpt lat="46.66263323828634" lon="7.272222151569788"><ele></ele><time>2015-8-25T4:13:50Z</time></trkpt>
<trkpt lat="46.66266059794094" lon="7.270491037334278"><ele></ele><time>2015-8-25T4:13:53Z</time></trkpt>
<trkpt lat="46.66245643086792" lon="7.269650239773451"><ele></ele><time>2015-8-25T4:13:56Z</time></trkpt>
<trkpt lat="46.6622063225519" lon="7.269222752173126"><ele></ele><time>2015-8-25T4:13:59Z</time></trkpt>
<trkpt lat="46.66205436735871" lon="7.268760735155857"><ele></ele><time>2015-8-25T4:14:2Z</time></trkpt>
<trkpt lat="46.66162346687311" lon="7.268028390098075"><ele></ele><time>2015-8-25T4:14:5Z</time></trkpt>
<trkpt lat="46.66121351519805" lon="7.267597291656208"><ele></ele><time>2015-8-25T4:14:8Z</time></trkpt>
<trkpt lat="46.66118594918025" lon="7.267071074341168"><ele></ele><time>2015-8-25T4:14:11Z</time></trkpt>
<trkpt lat="46.660560845614164" lon="7.266026578963925"><ele></ele><time>2015-8-25T4:14:14Z</time></trkpt>
<trkpt lat="46.66088204685779" lon="7.265747055608917"><ele></ele><time>2015-8-25T4:14:17Z</time></trkpt>
<trkpt lat="46.660362960911705" lon="7.265392647076873"><ele></ele><time>2015-8-25T4:14:20Z</time></trkpt>
<trkpt lat="46.6604175280561" lon="7.265354427832353"><ele></ele><time>2015-8-25T4:14:23Z</time></trkpt>
<trkpt lat="46.660170602160555" lon="7.265064235962523"><ele></ele><time>2015-8-25T4:14:26Z</time></trkpt>
<trkpt lat="46.66017521979631" lon="7.264686882649503"><ele></ele><time>2015-8-25T4:14:29Z</time></trkpt>
<trkpt lat="46.66006927932895" lon="7.264330563351156"><ele></ele><time>2015-8-25T4:14:32Z</time></trkpt>
<trkpt lat="46.66014790449008" lon="7.26419913828506"><ele></ele><time>2015-8-25T4:14:35Z</time></trkpt>
<trkpt lat="46.66016639247218" lon="7.26361381115939"><ele></ele><time>2015-8-25T4:14:38Z</time></trkpt>
<trkpt lat="46.65960018636042" lon="7.2639488086142086"><ele></ele><time>2015-8-25T4:14:41Z</time></trkpt>
<trkpt lat="46.65953334994629" lon="7.264360579023779"><ele></ele><time>2015-8-25T4:14:44Z</time></trkpt>
<trkpt lat="46.65925286117582" lon="7.265226555571577"><ele></ele><time>2015-8-25T4:14:47Z</time></trkpt>
<trkpt lat="46.658960669682855" lon="7.2650944446118535"><ele></ele><time>2015-8-25T4:14:50Z</time></trkpt>
<trkpt lat="46.65825267681125" lon="7.2636549063489975"><ele></ele><time>2015-8-25T4:14:53Z</time></trkpt>
<trkpt lat="46.65734601726965" lon="7.262958248373228"><ele></ele><time>2015-8-25T4:14:56Z</time></trkpt>
<trkpt lat="46.65696667703833" lon="7.2624483611946795"><ele></ele><time>2015-8-25T4:14:59Z</time></trkpt>
<trkpt lat="46.657681941337614" lon="7.262524417645894"><ele></ele><time>2015-8-25T4:15:2Z</time></trkpt>
<trkpt lat="46.65836955089571" lon="7.262164691662751"><ele></ele><time>2015-8-25T4:15:5Z</time></trkpt>
<trkpt lat="46.65877039870368" lon="7.26098042842684"><ele></ele><time>2015-8-25T4:15:8Z</time></trkpt>
<trkpt lat="46.65864326207468" lon="7.26012270245683"><ele></ele><time>2015-8-25T4:15:11Z</time></trkpt>
<trkpt lat="46.658478235890755" lon="7.259425488455676"><ele></ele><time>2015-8-25T4:15:14Z</time></trkpt>
<trkpt lat="46.65693202315159" lon="7.255167246888046"><ele></ele><time>2015-8-25T4:15:17Z</time></trkpt>
<trkpt lat="46.65588227219503" lon="7.250926543867057"><ele></ele><time>2015-8-25T4:15:20Z</time></trkpt>
<trkpt lat="46.65564038040519" lon="7.250397383834553"><ele></ele><time>2015-8-25T4:15:23Z</time></trkpt>
<trkpt lat="46.655603426129765" lon="7.249903101103168"><ele></ele><time>2015-8-25T4:15:26Z</time></trkpt>
<trkpt lat="46.655683655117464" lon="7.249218889207744"><ele></ele><time>2015-8-25T4:15:29Z</time></trkpt>
<trkpt lat="46.655394755648366" lon="7.247955471941044"><ele></ele><time>2015-8-25T4:15:32Z</time></trkpt>
<trkpt lat="46.655096537649996" lon="7.247409629522464"><ele></ele><time>2015-8-25T4:15:35Z</time></trkpt>
<trkpt lat="46.655028660282255" lon="7.246610579260565"><ele></ele><time>2015-8-25T4:15:38Z</time></trkpt>
<trkpt lat="46.654813519598605" lon="7.24545830916006"><ele></ele><time>2015-8-25T4:15:41Z</time></trkpt>
<trkpt lat="46.65419990071874" lon="7.244365869159539"><ele></ele><time>2015-8-25T4:15:44Z</time></trkpt>
<trkpt lat="46.65469660108303" lon="7.243898277061405"><ele></ele><time>2015-8-25T4:15:47Z</time></trkpt>
<trkpt lat="46.6539312659303" lon="7.238296634143487"><ele></ele><time>2015-8-25T4:15:50Z</time></trkpt>
<trkpt lat="46.655370438881256" lon="7.240193068559892"><ele></ele><time>2015-8-25T4:15:53Z</time></trkpt>
<trkpt lat="46.6562937636842" lon="7.2415971609984116"><ele></ele><time>2015-8-25T4:15:56Z</time></trkpt>
<trkpt lat="46.6566974303475" lon="7.241946703571781"><ele></ele><time>2015-8-25T4:15:59Z</time></trkpt>
<trkpt lat="46.65709605733974" lon="7.242810811309896"><ele></ele><time>2015-8-25T4:16:2Z</time></trkpt>
<trkpt lat="46.65915171803283" lon="7.243204009160785"><ele></ele><time>2015-8-25T4:16:5Z</time></trkpt>
<trkpt lat="46.659827128265505" lon="7.243489692955655"><ele></ele><time>2015-8-25T4:16:8Z</time></trkpt>
<trkpt lat="46.66245202805496" lon="7.242808102627568"><ele></ele><time>2015-8-25T4:16:11Z</time></trkpt>
<trkpt lat="46.66356884907334" lon="7.242204400762296"><ele></ele><time>2015-8-25T4:16:14Z</time></trkpt>
<trkpt lat="46.66408264381046" lon="7.240806926848196"><ele></ele><time>2015-8-25T4:16:17Z</time></trkpt>
<trkpt lat="46.664116187691995" lon="7.238188149139211"><ele></ele><time>2015-8-25T4:16:20Z</time></trkpt>
<trkpt lat="46.664231778239326" lon="7.2380079430077116"><ele></ele><time>2015-8-25T4:16:23Z</time></trkpt>
<trkpt lat="46.66500670459032" lon="7.236824778704466"><ele></ele><time>2015-8-25T4:16:26Z</time></trkpt>
<trkpt lat="46.66499786302131" lon="7.235088724754458"><ele></ele><time>2015-8-25T4:16:29Z</time></trkpt>
<trkpt lat="46.665112123942315" lon="7.234350786497353"><ele></ele><time>2015-8-25T4:16:32Z</time></trkpt>
<trkpt lat="46.66608005803042" lon="7.230841406900991"><ele></ele><time>2015-8-25T4:16:35Z</time></trkpt>
<trkpt lat="46.66636314247629" lon="7.229554209497964"><ele></ele><time>2015-8-25T4:16:38Z</time></trkpt>
<trkpt lat="46.667372302784415" lon="7.226681940619056"><ele></ele><time>2015-8-25T4:16:41Z</time></trkpt>
<trkpt lat="46.666303597113114" lon="7.222923320188589"><ele></ele><time>2015-8-25T4:16:44Z</time></trkpt>
<trkpt lat="46.66733671303494" lon="7.221028510920614"><ele></ele><time>2015-8-25T4:16:47Z</time></trkpt>
<trkpt lat="46.66763076067303" lon="7.22057539760705"><ele></ele><time>2015-8-25T4:16:50Z</time></trkpt>
<trkpt lat="46.66792372316317" lon="7.219906114894327"><ele></ele><time>2015-8-25T4:16:53Z</time></trkpt>
<trkpt lat="46.66851754960631" lon="7.217491899838216"><ele></ele><time>2015-8-25T4:16:56Z</time></trkpt>
<trkpt lat="46.66847975952653" lon="7.216895441788237"><ele></ele><time>2015-8-25T4:16:59Z</time></trkpt>
<trkpt lat="46.66820133029102" lon="7.216004684718737"><ele></ele><time>2015-8-25T4:17:2Z</time></trkpt>
<trkpt lat="46.66830539379614" lon="7.213912397773133"><ele></ele><time>2015-8-25T4:17:5Z</time></trkpt>
<trkpt lat="46.66775825479609" lon="7.212306484916301"><ele></ele><time>2015-8-25T4:17:8Z</time></trkpt>
<trkpt lat="46.66653762642957" lon="7.2107529300050635"><ele></ele><time>2015-8-25T4:17:11Z</time></trkpt>
<trkpt lat="46.66640251724633" lon="7.210391580212519"><ele></ele><time>2015-8-25T4:17:14Z</time></trkpt>
<trkpt lat="46.66751080567311" lon="7.208997800618608"><ele></ele><time>2015-8-25T4:17:17Z</time></trkpt>
<trkpt lat="46.668988821594354" lon="7.207586937936524"><ele></ele><time>2015-8-25T4:17:20Z</time></trkpt>
<trkpt lat="46.66923895287901" lon="7.206902230810943"><ele></ele><time>2015-8-25T4:17:23Z</time></trkpt>
<trkpt lat="46.669824706292566" lon="7.205765837252382"><ele></ele><time>2015-8-25T4:17:26Z</time></trkpt>
<trkpt lat="46.670625038761074" lon="7.2042254719470264"><ele></ele><time>2015-8-25T4:17:29Z</time></trkpt>
<trkpt lat="46.67139282094101" lon="7.20357526890103"><ele></ele><time>2015-8-25T4:17:32Z</time></trkpt>
<trkpt lat="46.67227097635405" lon="7.19769617968397"><ele></ele><time>2015-8-25T4:17:35Z</time></trkpt>
<trkpt lat="46.67199850492855" lon="7.196504596241807"><ele></ele><time>2015-8-25T4:17:38Z</time></trkpt>
<trkpt lat="46.672045379129216" lon="7.195599520154859"><ele></ele><time>2015-8-25T4:17:41Z</time></trkpt>
<trkpt lat="46.67252953588112" lon="7.1948336026741835"><ele></ele><time>2015-8-25T4:17:44Z</time></trkpt>
<trkpt lat="46.67277413259914" lon="7.194273702037105"><ele></ele><time>2015-8-25T4:17:47Z</time></trkpt>
<trkpt lat="46.67279152069347" lon="7.192509144156698"><ele></ele><time>2015-8-25T4:17:50Z</time></trkpt>
<trkpt lat="46.67289395910076" lon="7.191983686988213"><ele></ele><time>2015-8-25T4:17:53Z</time></trkpt>
<trkpt lat="46.67277402761195" lon="7.191326288965978"><ele></ele><time>2015-8-25T4:17:56Z</time></trkpt>
<trkpt lat="46.67283288935707" lon="7.190360109341693"><ele></ele><time>2015-8-25T4:17:59Z</time></trkpt>
<trkpt lat="46.672715042268386" lon="7.190223814436804"><ele></ele><time>2015-8-25T4:18:2Z</time></trkpt>
<trkpt lat="46.67280959281853" lon="7.190114183235922"><ele></ele><time>2015-8-25T4:18:5Z</time></trkpt>
<trkpt lat="46.67316166658242" lon="7.188587602228201"><ele></ele><time>2015-8-25T4:18:8Z</time></trkpt>
<trkpt lat="46.67374356093697" lon="7.187627061304419"><ele></ele><time>2015-8-25T4:18:11Z</time></trkpt>
<trkpt lat="46.67474066575753" lon="7.185368756003795"><ele></ele><time>2015-8-25T4:18:14Z</time></trkpt>
<trkpt lat="46.67626752291554" lon="7.183989592617966"><ele></ele><time>2015-8-25T4:18:17Z</time></trkpt>
<trkpt lat="46.67632714223286" lon="7.182879663481888"><ele></ele><time>2015-8-25T4:18:20Z</time></trkpt>
<trkpt lat="46.67644357839332" lon="7.182362002179427"><ele></ele><time>2015-8-25T4:18:23Z</time></trkpt>
<trkpt lat="46.67673142327719" lon="7.181930346719103"><ele></ele><time>2015-8-25T4:18:26Z</time></trkpt>
<trkpt lat="46.67693301086161" lon="7.181834382742839"><ele></ele><time>2015-8-25T4:18:29Z</time></trkpt>
<trkpt lat="46.67715548138874" lon="7.181182280357613"><ele></ele><time>2015-8-25T4:18:32Z</time></trkpt>
<trkpt lat="46.67752312802205" lon="7.180484083870463"><ele></ele><time>2015-8-25T4:18:35Z</time></trkpt>
<trkpt lat="46.67782269859638" lon="7.18047353579742"><ele></ele><time>2015-8-25T4:18:38Z</time></trkpt>
<trkpt lat="46.678207775549936" lon="7.179967118050955"><ele></ele><time>2015-8-25T4:18:41Z</time></trkpt>
<trkpt lat="46.67859284847362" lon="7.1796487064124825"><ele></ele><time>2015-8-25T4:18:44Z</time></trkpt>
<trkpt lat="46.6788526998861" lon="7.179116466932082"><ele></ele><time>2015-8-25T4:18:47Z</time></trkpt>
<trkpt lat="46.679454353919176" lon="7.179175166641116"><ele></ele><time>2015-8-25T4:18:50Z</time></trkpt>
<trkpt lat="46.67982080731761" lon="7.179398811890601"><ele></ele><time>2015-8-25T4:18:53Z</time></trkpt>
<trkpt lat="46.68088027851517" lon="7.179650818350617"><ele></ele><time>2015-8-25T4:18:56Z</time></trkpt>
<trkpt lat="46.681954749368956" lon="7.180090663894428"><ele></ele><time>2015-8-25T4:18:59Z</time></trkpt>
<trkpt lat="46.68318060041863" lon="7.180418114733125"><ele></ele><time>2015-8-25T4:19:2Z</time></trkpt>
<trkpt lat="46.683359303195495" lon="7.180422397334242"><ele></ele><time>2015-8-25T4:19:5Z</time></trkpt>
<trkpt lat="46.6835723751666" lon="7.180274885189505"><ele></ele><time>2015-8-25T4:19:8Z</time></trkpt>
<trkpt lat="46.68432069825754" lon="7.181027109887534"><ele></ele><time>2015-8-25T4:19:11Z</time></trkpt>
<trkpt lat="46.68476108191384" lon="7.181178925424965"><ele></ele><time>2015-8-25T4:19:14Z</time></trkpt>
<trkpt lat="46.68528553693165" lon="7.181305598934838"><ele></ele><time>2015-8-25T4:19:17Z</time></trkpt>
<trkpt lat="46.68619589896684" lon="7.181307650462557"><ele></ele><time>2015-8-25T4:19:20Z</time></trkpt>
<trkpt lat="46.6868866499693" lon="7.181511109467165"><ele></ele><time>2015-8-25T4:19:23Z</time></trkpt>
<trkpt lat="46.688449436083665" lon="7.182721272982604"><ele></ele><time>2015-8-25T4:19:26Z</time></trkpt>
<trkpt lat="46.68920857809522" lon="7.18318767517487"><ele></ele><time>2015-8-25T4:19:29Z</time></trkpt>
<trkpt lat="46.68958986378339" lon="7.183590023099366"><ele></ele><time>2015-8-25T4:19:32Z</time></trkpt>
<trkpt lat="46.690498534548475" lon="7.184291292654052"><ele></ele><time>2015-8-25T4:19:35Z</time></trkpt>
<trkpt lat="46.69059483875621" lon="7.184489864091406"><ele></ele><time>2015-8-25T4:19:38Z</time></trkpt>
<trkpt lat="46.69162244316562" lon="7.185475201405755"><ele></ele><time>2015-8-25T4:19:41Z</time></trkpt>
<trkpt lat="46.69204413221154" lon="7.185765820311307"><ele></ele><time>2015-8-25T4:19:44Z</time></trkpt>
<trkpt lat="46.69145774097054" lon="7.185340999984366"><ele></ele><time>2015-8-25T4:19:47Z</time></trkpt>
<trkpt lat="46.69063054532697" lon="7.1845123291459725"><ele></ele><time>2015-8-25T4:19:50Z</time></trkpt>
<trkpt lat="46.690560224074616" lon="7.184362792963814"><ele></ele><time>2015-8-25T4:19:53Z</time></trkpt>
<trkpt lat="46.69076902641931" lon="7.183974971548382"><ele></ele><time>2015-8-25T4:19:56Z</time></trkpt>
<trkpt lat="46.691065247424575" lon="7.183818242959898"><ele></ele><time>2015-8-25T4:19:59Z</time></trkpt>
<trkpt lat="46.6912897147967" lon="7.183860329916448"><ele></ele><time>2015-8-25T4:20:2Z</time></trkpt>
<trkpt lat="46.692291346719216" lon="7.184307212821072"><ele></ele><time>2015-8-25T4:20:5Z</time></trkpt>
<trkpt lat="46.6932758844434" lon="7.184523508883605"><ele></ele><time>2015-8-25T4:20:8Z</time></trkpt>
<trkpt lat="46.69437366702001" lon="7.184512660400204"><ele></ele><time>2015-8-25T4:20:11Z</time></trkpt>
<trkpt lat="46.69500641403954" lon="7.184767413989409"><ele></ele><time>2015-8-25T4:20:14Z</time></trkpt>
<trkpt lat="46.695364072159094" lon="7.1847281185124565"><ele></ele><time>2015-8-25T4:20:17Z</time></trkpt>
<trkpt lat="46.695674031446515" lon="7.184951174405051"><ele></ele><time>2015-8-25T4:20:20Z</time></trkpt>
<trkpt lat="46.69620350233146" lon="7.185705652303999"><ele></ele><time>2015-8-25T4:20:23Z</time></trkpt>
<trkpt lat="46.696946377195275" lon="7.18646835375867"><ele></ele><time>2015-8-25T4:20:26Z</time></trkpt>
<trkpt lat="46.697736921827065" lon="7.1883318520545645"><ele></ele><time>2015-8-25T4:20:29Z</time></trkpt>
<trkpt lat="46.69819850296921" lon="7.188903685323534"><ele></ele><time>2015-8-25T4:20:32Z</time></trkpt>
<trkpt lat="46.699097927600974" lon="7.1908364227219055"><ele></ele><time>2015-8-25T4:20:35Z</time></trkpt>
<trkpt lat="46.700150165399606" lon="7.19228209455019"><ele></ele><time>2015-8-25T4:20:38Z</time></trkpt>
<trkpt lat="46.70076419898064" lon="7.193564048777156"><ele></ele><time>2015-8-25T4:20:41Z</time></trkpt>
<trkpt lat="46.7016523302463" lon="7.194456927154898"><ele></ele><time>2015-8-25T4:20:44Z</time></trkpt>
<trkpt lat="46.70290236706455" lon="7.196604758927963"><ele></ele><time>2015-8-25T4:20:47Z</time></trkpt>
<trkpt lat="46.70516429331591" lon="7.2016969434058495"><ele></ele><time>2015-8-25T4:20:50Z</time></trkpt>
<trkpt lat="46.705181884378234" lon="7.2022188849041875"><ele></ele><time>2015-8-25T4:20:53Z</time></trkpt>
<trkpt lat="46.70499693028933" lon="7.204520964985591"><ele></ele><time>2015-8-25T4:20:56Z</time></trkpt>
<trkpt lat="46.705300415023785" lon="7.205722690676506"><ele></ele><time>2015-8-25T4:20:59Z</time></trkpt>
<trkpt lat="46.70568982371877" lon="7.206493506720278"><ele></ele><time>2015-8-25T4:21:2Z</time></trkpt>
<trkpt lat="46.706123576673974" lon="7.207084030053399"><ele></ele><time>2015-8-25T4:21:5Z</time></trkpt>
<trkpt lat="46.70636992021788" lon="7.207162914315221"><ele></ele><time>2015-8-25T4:21:8Z</time></trkpt>
<trkpt lat="46.70696420644965" lon="7.206843170553676"><ele></ele><time>2015-8-25T4:21:11Z</time></trkpt>
<trkpt lat="46.707481539284046" lon="7.206865991602388"><ele></ele><time>2015-8-25T4:21:14Z</time></trkpt>
<trkpt lat="46.70773676724624" lon="7.20696599862519"><ele></ele><time>2015-8-25T4:21:17Z</time></trkpt>
<trkpt lat="46.70853034886414" lon="7.20793917098503"><ele></ele><time>2015-8-25T4:21:20Z</time></trkpt>
<trkpt lat="46.708710476411746" lon="7.207955355800574"><ele></ele><time>2015-8-25T4:21:23Z</time></trkpt>
<trkpt lat="46.70909822557049" lon="7.207925868220792"><ele></ele><time>2015-8-25T4:21:26Z</time></trkpt>
<trkpt lat="46.711250889032215" lon="7.207277956552992"><ele></ele><time>2015-8-25T4:21:29Z</time></trkpt>
<trkpt lat="46.71131175336871" lon="7.20673296831601"><ele></ele><time>2015-8-25T4:21:32Z</time></trkpt>
<trkpt lat="46.71100673880869" lon="7.206530951483383"><ele></ele><time>2015-8-25T4:21:35Z</time></trkpt>
<trkpt lat="46.71066376032849" lon="7.2060308727939395"><ele></ele><time>2015-8-25T4:21:38Z</time></trkpt>
<trkpt lat="46.710467719006914" lon="7.205447987300188"><ele></ele><time>2015-8-25T4:21:41Z</time></trkpt>
<trkpt lat="46.709945955495286" lon="7.204865339203031"><ele></ele><time>2015-8-25T4:21:44Z</time></trkpt>
<trkpt lat="46.70974630976995" lon="7.204291170707157"><ele></ele><time>2015-8-25T4:21:47Z</time></trkpt>
<trkpt lat="46.70962093052523" lon="7.203598988314109"><ele></ele><time>2015-8-25T4:21:50Z</time></trkpt>
<trkpt lat="46.70987461522737" lon="7.201360530107639"><ele></ele><time>2015-8-25T4:21:53Z</time></trkpt>
<trkpt lat="46.71033916378693" lon="7.200344915866046"><ele></ele><time>2015-8-25T4:21:56Z</time></trkpt>
<trkpt lat="46.710612251545655" lon="7.200148456044872"><ele></ele><time>2015-8-25T4:21:59Z</time></trkpt>
<trkpt lat="46.71086605264306" lon="7.200340244806416"><ele></ele><time>2015-8-25T4:22:2Z</time></trkpt>
<trkpt lat="46.71106184669677" lon="7.20072238390817"><ele></ele><time>2015-8-25T4:22:5Z</time></trkpt>
<trkpt lat="46.71124924090132" lon="7.201953441041628"><ele></ele><time>2015-8-25T4:22:8Z</time></trkpt>
<trkpt lat="46.71152775340618" lon="7.2028721088464795"><ele></ele><time>2015-8-25T4:22:11Z</time></trkpt>
<trkpt lat="46.711541905749414" lon="7.2034954710378605"><ele></ele><time>2015-8-25T4:22:14Z</time></trkpt>
<trkpt lat="46.71163770145595" lon="7.203964106959841"><ele></ele><time>2015-8-25T4:22:17Z</time></trkpt>
<trkpt lat="46.71196283015104" lon="7.204285650510483"><ele></ele><time>2015-8-25T4:22:20Z</time></trkpt>
<trkpt lat="46.71236338985528" lon="7.204914058503245"><ele></ele><time>2015-8-25T4:22:23Z</time></trkpt>
<trkpt lat="46.71253337478184" lon="7.204953293108271"><ele></ele><time>2015-8-25T4:22:26Z</time></trkpt>
<trkpt lat="46.71258492771453" lon="7.204763277763821"><ele></ele><time>2015-8-25T4:22:29Z</time></trkpt>
<trkpt lat="46.71245669702659" lon="7.20414569417477"><ele></ele><time>2015-8-25T4:22:32Z</time></trkpt>
<trkpt lat="46.71253817545737" lon="7.203862221989237"><ele></ele><time>2015-8-25T4:22:35Z</time></trkpt>
<trkpt lat="46.71286315488485" lon="7.203311796954493"><ele></ele><time>2015-8-25T4:22:38Z</time></trkpt>
<trkpt lat="46.71298705639855" lon="7.2025321184047675"><ele></ele><time>2015-8-25T4:22:41Z</time></trkpt>
<trkpt lat="46.7132614121621" lon="7.201827967242246"><ele></ele><time>2015-8-25T4:22:44Z</time></trkpt>
<trkpt lat="46.712968645651536" lon="7.201132592548565"><ele></ele><time>2015-8-25T4:22:47Z</time></trkpt>
<trkpt lat="46.71291207680697" lon="7.200694216975896"><ele></ele><time>2015-8-25T4:22:50Z</time></trkpt>
<trkpt lat="46.713089287439246" lon="7.199917222950701"><ele></ele><time>2015-8-25T4:22:53Z</time></trkpt>
<trkpt lat="46.71327160362157" lon="7.199492436392648"><ele></ele><time>2015-8-25T4:22:56Z</time></trkpt>
<trkpt lat="46.7142285070643" lon="7.19849436177317"><ele></ele><time>2015-8-25T4:22:59Z</time></trkpt>
<trkpt lat="46.71430286569026" lon="7.197983237038561"><ele></ele><time>2015-8-25T4:23:2Z</time></trkpt>
<trkpt lat="46.714122415042446" lon="7.197390880693714"><ele></ele><time>2015-8-25T4:23:5Z</time></trkpt>
<trkpt lat="46.714181766035296" lon="7.197067174481587"><ele></ele><time>2015-8-25T4:23:8Z</time></trkpt>
<trkpt lat="46.71450430865489" lon="7.19680550571166"><ele></ele><time>2015-8-25T4:23:11Z</time></trkpt>
<trkpt lat="46.71470422502139" lon="7.196471244415985"><ele></ele><time>2015-8-25T4:23:14Z</time></trkpt>
<trkpt lat="46.71485670665503" lon="7.19580430365816"><ele></ele><time>2015-8-25T4:23:17Z</time></trkpt>
<trkpt lat="46.715264834852576" lon="7.195261845146602"><ele></ele><time>2015-8-25T4:23:20Z</time></trkpt>
<trkpt lat="46.715406089325086" lon="7.194376890834921"><ele></ele><time>2015-8-25T4:23:23Z</time></trkpt>
<trkpt lat="46.71563173906352" lon="7.194005079792215"><ele></ele><time>2015-8-25T4:23:26Z</time></trkpt>
<trkpt lat="46.71586427415037" lon="7.193060869469655"><ele></ele><time>2015-8-25T4:23:29Z</time></trkpt>
<trkpt lat="46.71606243197267" lon="7.192649494702006"><ele></ele><time>2015-8-25T4:23:32Z</time></trkpt>
<trkpt lat="46.71631146256644" lon="7.192502319468119"><ele></ele><time>2015-8-25T4:23:35Z</time></trkpt>
<trkpt lat="46.716589488184724" lon="7.19266074936986"><ele></ele><time>2015-8-25T4:23:38Z</time></trkpt>
<trkpt lat="46.716670619069575" lon="7.192957555781313"><ele></ele><time>2015-8-25T4:23:41Z</time></trkpt>
<trkpt lat="46.716616130941674" lon="7.193217056863357"><ele></ele><time>2015-8-25T4:23:44Z</time></trkpt>
<trkpt lat="46.7163468106181" lon="7.193620130458076"><ele></ele><time>2015-8-25T4:23:47Z</time></trkpt>
<trkpt lat="46.716248567524865" lon="7.193937883808577"><ele></ele><time>2015-8-25T4:23:50Z</time></trkpt>
<trkpt lat="46.71640495629347" lon="7.19479812443851"><ele></ele><time>2015-8-25T4:23:53Z</time></trkpt>
<trkpt lat="46.7167620990093" lon="7.195354278647991"><ele></ele><time>2015-8-25T4:23:56Z</time></trkpt>
<trkpt lat="46.71664557782175" lon="7.195930193554501"><ele></ele><time>2015-8-25T4:23:59Z</time></trkpt>
<trkpt lat="46.716693763134614" lon="7.196442245576645"><ele></ele><time>2015-8-25T4:24:2Z</time></trkpt>
<trkpt lat="46.717083683902125" lon="7.196779047012033"><ele></ele><time>2015-8-25T4:24:5Z</time></trkpt>
<trkpt lat="46.71732355246679" lon="7.197846324016884"><ele></ele><time>2015-8-25T4:24:8Z</time></trkpt>
<trkpt lat="46.717571144294666" lon="7.1983528526189"><ele></ele><time>2015-8-25T4:24:11Z</time></trkpt>
<trkpt lat="46.71760105174329" lon="7.199113426995173"><ele></ele><time>2015-8-25T4:24:14Z</time></trkpt>
<trkpt lat="46.717966832692156" lon="7.199443102736733"><ele></ele><time>2015-8-25T4:24:17Z</time></trkpt>
<trkpt lat="46.71846972217826" lon="7.200721111895056"><ele></ele><time>2015-8-25T4:24:20Z</time></trkpt>
<trkpt lat="46.71906230667144" lon="7.2016102888393885"><ele></ele><time>2015-8-25T4:24:23Z</time></trkpt>
<trkpt lat="46.71975322477739" lon="7.201863116636155"><ele></ele><time>2015-8-25T4:24:26Z</time></trkpt>
<trkpt lat="46.720004670608176" lon="7.202451955536792"><ele></ele><time>2015-8-25T4:24:29Z</time></trkpt>
<trkpt lat="46.72018571650962" lon="7.202643489631338"><ele></ele><time>2015-8-25T4:24:32Z</time></trkpt>
<trkpt lat="46.720422493171576" lon="7.20326937585465"><ele></ele><time>2015-8-25T4:24:35Z</time></trkpt>
<trkpt lat="46.720331283423576" lon="7.203944617257499"><ele></ele><time>2015-8-25T4:24:38Z</time></trkpt>
<trkpt lat="46.72042731931369" lon="7.204949945713183"><ele></ele><time>2015-8-25T4:24:41Z</time></trkpt>
<trkpt lat="46.72066963116191" lon="7.205429400476415"><ele></ele><time>2015-8-25T4:24:44Z</time></trkpt>
<trkpt lat="46.720749761853035" lon="7.205461338947542"><ele></ele><time>2015-8-25T4:24:47Z</time></trkpt>
<trkpt lat="46.72087180733232" lon="7.205251796877756"><ele></ele><time>2015-8-25T4:24:50Z</time></trkpt>
<trkpt lat="46.72065045239386" lon="7.2046746939617226"><ele></ele><time>2015-8-25T4:24:53Z</time></trkpt>
<trkpt lat="46.72067434896574" lon="7.20429281592735"><ele></ele><time>2015-8-25T4:24:56Z</time></trkpt>
<trkpt lat="46.72115919009238" lon="7.20288677425323"><ele></ele><time>2015-8-25T4:24:59Z</time></trkpt>
<trkpt lat="46.721253589682256" lon="7.201989077558377"><ele></ele><time>2015-8-25T4:25:2Z</time></trkpt>
<trkpt lat="46.720936683652816" lon="7.201269059211575"><ele></ele><time>2015-8-25T4:25:5Z</time></trkpt>
<trkpt lat="46.72094071899693" lon="7.200699928824483"><ele></ele><time>2015-8-25T4:25:8Z</time></trkpt>
<trkpt lat="46.720492961473724" lon="7.2004250671577115"><ele></ele><time>2015-8-25T4:25:11Z</time></trkpt>
<trkpt lat="46.72038567826158" lon="7.200157931566886"><ele></ele><time>2015-8-25T4:25:14Z</time></trkpt>
<trkpt lat="46.72036985475536" lon="7.199288728522095"><ele></ele><time>2015-8-25T4:25:17Z</time></trkpt>
<trkpt lat="46.72062669838377" lon="7.198298502753251"><ele></ele><time>2015-8-25T4:25:20Z</time></trkpt>
<trkpt lat="46.721157276027284" lon="7.19826390853353"><ele></ele><time>2015-8-25T4:25:23Z</time></trkpt>
<trkpt lat="46.7213700983623" lon="7.198035427348103"><ele></ele><time>2015-8-25T4:25:26Z</time></trkpt>
<trkpt lat="46.72145140966164" lon="7.19772991086349"><ele></ele><time>2015-8-25T4:25:29Z</time></trkpt>
<trkpt lat="46.72157969345641" lon="7.195836865836172"><ele></ele><time>2015-8-25T4:25:32Z</time></trkpt>
<trkpt lat="46.721416426609366" lon="7.195205618363397"><ele></ele><time>2015-8-25T4:25:35Z</time></trkpt>
<trkpt lat="46.72141861207055" lon="7.194915269674734"><ele></ele><time>2015-8-25T4:25:38Z</time></trkpt>
<trkpt lat="46.721630390340884" lon="7.192539766512054"><ele></ele><time>2015-8-25T4:25:41Z</time></trkpt>
<trkpt lat="46.721880525424616" lon="7.191695636934053"><ele></ele><time>2015-8-25T4:25:44Z</time></trkpt>
<trkpt lat="46.72261287140306" lon="7.190956721132429"><ele></ele><time>2015-8-25T4:25:47Z</time></trkpt>
<trkpt lat="46.722993175483936" lon="7.190234218529416"><ele></ele><time>2015-8-25T4:25:50Z</time></trkpt>
<trkpt lat="46.72316736809335" lon="7.189489494938909"><ele></ele><time>2015-8-25T4:25:53Z</time></trkpt>
<trkpt lat="46.72303544886875" lon="7.188900577390742"><ele></ele><time>2015-8-25T4:25:56Z</time></trkpt>
<trkpt lat="46.72316680645116" lon="7.188311587507929"><ele></ele><time>2015-8-25T4:25:59Z</time></trkpt>
<trkpt lat="46.7239740900296" lon="7.187432948925925"><ele></ele><time>2015-8-25T4:26:2Z</time></trkpt>
<trkpt lat="46.72484707929766" lon="7.186964942168617"><ele></ele><time>2015-8-25T4:26:5Z</time></trkpt>
<trkpt lat="46.725148011997156" lon="7.1859824298848025"><ele></ele><time>2015-8-25T4:26:8Z</time></trkpt>
<trkpt lat="46.725738370945024" lon="7.185104787748459"><ele></ele><time>2015-8-25T4:26:11Z</time></trkpt>
<trkpt lat="46.72594213566155" lon="7.185119045876537"><ele></ele><time>2015-8-25T4:26:14Z</time></trkpt>
<trkpt lat="46.72618530061631" lon="7.184894254163094"><ele></ele><time>2015-8-25T4:26:17Z</time></trkpt>
<trkpt lat="46.72576058675311" lon="7.184933462842129"><ele></ele><time>2015-8-25T4:26:20Z</time></trkpt>
<trkpt lat="46.7255376518569" lon="7.183774656478257"><ele></ele><time>2015-8-25T4:26:23Z</time></trkpt>
<trkpt lat="46.72519273674778" lon="7.183689565173221"><ele></ele><time>2015-8-25T4:26:26Z</time></trkpt>
<trkpt lat="46.72478495381986" lon="7.183756602463548"><ele></ele><time>2015-8-25T4:26:29Z</time></trkpt>
<trkpt lat="46.72406151872805" lon="7.1832731032295065"><ele></ele><time>2015-8-25T4:26:32Z</time></trkpt>
<trkpt lat="46.72382574641729" lon="7.182725336216704"><ele></ele><time>2015-8-25T4:26:35Z</time></trkpt>
<trkpt lat="46.723738249193154" lon="7.182246474851476"><ele></ele><time>2015-8-25T4:26:38Z</time></trkpt>
<trkpt lat="46.72356215104604" lon="7.1819449704524265"><ele></ele><time>2015-8-25T4:26:41Z</time></trkpt>
<trkpt lat="46.72268910777265" lon="7.181020409397405"><ele></ele><time>2015-8-25T4:26:44Z</time></trkpt>
<trkpt lat="46.72218544443259" lon="7.180668180165016"><ele></ele><time>2015-8-25T4:26:47Z</time></trkpt>
<trkpt lat="46.72227497293761" lon="7.1802314036415"><ele></ele><time>2015-8-25T4:26:50Z</time></trkpt>
<trkpt lat="46.72252635428631" lon="7.17990921470027"><ele></ele><time>2015-8-25T4:26:53Z</time></trkpt>
<trkpt lat="46.72256770256245" lon="7.178730219439779"><ele></ele><time>2015-8-25T4:26:56Z</time></trkpt>
<trkpt lat="46.72296604565665" lon="7.177184280596663"><ele></ele><time>2015-8-25T4:26:59Z</time></trkpt>
<trkpt lat="46.72341065326525" lon="7.17581712959843"><ele></ele><time>2015-8-25T4:27:2Z</time></trkpt>
<trkpt lat="46.722637525054935" lon="7.174789559318956"><ele></ele><time>2015-8-25T4:27:5Z</time></trkpt>
<trkpt lat="46.72141847230344" lon="7.174006385360645"><ele></ele><time>2015-8-25T4:27:8Z</time></trkpt>
<trkpt lat="46.721231484120324" lon="7.173406149741137"><ele></ele><time>2015-8-25T4:27:11Z</time></trkpt>
<trkpt lat="46.72103903864586" lon="7.173224924726345"><ele></ele><time>2015-8-25T4:27:14Z</time></trkpt>
<trkpt lat="46.720244354802084" lon="7.172851979262313"><ele></ele><time>2015-8-25T4:27:17Z</time></trkpt>
<trkpt lat="46.718662181105074" lon="7.172779154689916"><ele></ele><time>2015-8-25T4:27:20Z</time></trkpt>
<trkpt lat="46.7183692352111" lon="7.172642181629623"><ele></ele><time>2015-8-25T4:27:23Z</time></trkpt>
<trkpt lat="46.71748060595546" lon="7.171523075757723"><ele></ele><time>2015-8-25T4:27:26Z</time></trkpt>
<trkpt lat="46.71710754058761" lon="7.170836330697903"><ele></ele><time>2015-8-25T4:27:29Z</time></trkpt>
<trkpt lat="46.71682341055573" lon="7.1700139704981485"><ele></ele><time>2015-8-25T4:27:32Z</time></trkpt>
<trkpt lat="46.716585204655075" lon="7.169604001522146"><ele></ele><time>2015-8-25T4:27:35Z</time></trkpt>
<trkpt lat="46.71626837357621" lon="7.169313135789078"><ele></ele><time>2015-8-25T4:27:38Z</time></trkpt>
<trkpt lat="46.71599958037029" lon="7.1685901855055"><ele></ele><time>2015-8-25T4:27:41Z</time></trkpt>
<trkpt lat="46.71607127779031" lon="7.1671202558173475"><ele></ele><time>2015-8-25T4:27:44Z</time></trkpt>
<trkpt lat="46.715725216827735" lon="7.165764888139391"><ele></ele><time>2015-8-25T4:27:47Z</time></trkpt>
<trkpt lat="46.71573319433267" lon="7.165088972505101"><ele></ele><time>2015-8-25T4:27:50Z</time></trkpt>
<trkpt lat="46.71531579949928" lon="7.163899479329735"><ele></ele><time>2015-8-25T4:27:53Z</time></trkpt>
<trkpt lat="46.714848307221956" lon="7.161489747644641"><ele></ele><time>2015-8-25T4:27:56Z</time></trkpt>
<trkpt lat="46.714876814001826" lon="7.161113737105178"><ele></ele><time>2015-8-25T4:27:59Z</time></trkpt>
<trkpt lat="46.715100444937086" lon="7.161078962171228"><ele></ele><time>2015-8-25T4:28:2Z</time></trkpt>
<trkpt lat="46.71524025926403" lon="7.160915605249637"><ele></ele><time>2015-8-25T4:28:5Z</time></trkpt>
<trkpt lat="46.71564212420398" lon="7.159322308729859"><ele></ele><time>2015-8-25T4:28:8Z</time></trkpt>
<trkpt lat="46.71583751366178" lon="7.159027861456014"><ele></ele><time>2015-8-25T4:28:11Z</time></trkpt>
<trkpt lat="46.71630665598827" lon="7.158794111276098"><ele></ele><time>2015-8-25T4:28:14Z</time></trkpt>
<trkpt lat="46.71637197535088" lon="7.157691643591933"><ele></ele><time>2015-8-25T4:28:17Z</time></trkpt>
<trkpt lat="46.716594773557375" lon="7.157406752913015"><ele></ele><time>2015-8-25T4:28:20Z</time></trkpt>
<trkpt lat="46.716763419740616" lon="7.157336603962798"><ele></ele><time>2015-8-25T4:28:23Z</time></trkpt>
<trkpt lat="46.718476174086625" lon="7.157863817517919"><ele></ele><time>2015-8-25T4:28:26Z</time></trkpt>
<trkpt lat="46.71857860275081" lon="7.157802298973782"><ele></ele><time>2015-8-25T4:28:29Z</time></trkpt>
<trkpt lat="46.718975084599435" lon="7.157067895072059"><ele></ele><time>2015-8-25T4:28:32Z</time></trkpt>
<trkpt lat="46.71940298504928" lon="7.15696054206326"><ele></ele><time>2015-8-25T4:28:35Z</time></trkpt>
<trkpt lat="46.72071768245064" lon="7.157424370769781"><ele></ele><time>2015-8-25T4:28:38Z</time></trkpt>
<trkpt lat="46.721799441767764" lon="7.158069657066572"><ele></ele><time>2015-8-25T4:28:41Z</time></trkpt>
<trkpt lat="46.72221627413367" lon="7.158143017179678"><ele></ele><time>2015-8-25T4:28:44Z</time></trkpt>
<trkpt lat="46.7225870113448" lon="7.157963158250892"><ele></ele><time>2015-8-25T4:28:47Z</time></trkpt>
<trkpt lat="46.72348130517263" lon="7.156843041888152"><ele></ele><time>2015-8-25T4:28:50Z</time></trkpt>
<trkpt lat="46.72367234178108" lon="7.1562865765324215"><ele></ele><time>2015-8-25T4:28:53Z</time></trkpt>
<trkpt lat="46.72353549029558" lon="7.155113524532567"><ele></ele><time>2015-8-25T4:28:56Z</time></trkpt>
<trkpt lat="46.72356734844903" lon="7.154803647374832"><ele></ele><time>2015-8-25T4:28:59Z</time></trkpt>
<trkpt lat="46.72416116842357" lon="7.152829151392784"><ele></ele><time>2015-8-25T4:29:2Z</time></trkpt>
<trkpt lat="46.72493402570362" lon="7.150902524087288"><ele></ele><time>2015-8-25T4:29:5Z</time></trkpt>
<trkpt lat="46.725189619542284" lon="7.149606946396672"><ele></ele><time>2015-8-25T4:29:8Z</time></trkpt>
<trkpt lat="46.72553392117275" lon="7.1470913044422435"><ele></ele><time>2015-8-25T4:29:11Z</time></trkpt>
<trkpt lat="46.72536457535109" lon="7.144672450338392"><ele></ele><time>2015-8-25T4:29:14Z</time></trkpt>
<trkpt lat="46.72540725439949" lon="7.143993351330565"><ele></ele><time>2015-8-25T4:29:17Z</time></trkpt>
<trkpt lat="46.72569395128868" lon="7.142430476556492"><ele></ele><time>2015-8-25T4:29:20Z</time></trkpt>
<trkpt lat="46.72612951117834" lon="7.140882863548638"><ele></ele><time>2015-8-25T4:29:23Z</time></trkpt>
<trkpt lat="46.7261964830146" lon="7.140877585969578"><ele></ele><time>2015-8-25T4:29:26Z</time></trkpt>
<trkpt lat="46.72608935438985" lon="7.141212689202309"><ele></ele><time>2015-8-25T4:29:29Z</time></trkpt>
<trkpt lat="46.72716884277643" lon="7.138415365121617"><ele></ele><time>2015-8-25T4:29:32Z</time></trkpt>
<trkpt lat="46.7273006177377" lon="7.1379262876627685"><ele></ele><time>2015-8-25T4:29:35Z</time></trkpt>
<trkpt lat="46.72730062488941" lon="7.137603249546343"><ele></ele><time>2015-8-25T4:29:38Z</time></trkpt>
<trkpt lat="46.72709293161169" lon="7.137094878431403"><ele></ele><time>2015-8-25T4:29:41Z</time></trkpt>
<trkpt lat="46.72676324427003" lon="7.134466469836708"><ele></ele><time>2015-8-25T4:29:44Z</time></trkpt>
<trkpt lat="46.726404581450026" lon="7.126911435102496"><ele></ele><time>2015-8-25T4:29:47Z</time></trkpt>
<trkpt lat="46.72638316828117" lon="7.1249141968547445"><ele></ele><time>2015-8-25T4:29:50Z</time></trkpt>
<trkpt lat="46.72621706828508" lon="7.123567973592644"><ele></ele><time>2015-8-25T4:29:53Z</time></trkpt>
<trkpt lat="46.725891956267695" lon="7.1225167856904426"><ele></ele><time>2015-8-25T4:29:56Z</time></trkpt>
<trkpt lat="46.7250481828743" lon="7.120877165296288"><ele></ele><time>2015-8-25T4:29:59Z</time></trkpt>
<trkpt lat="46.72491476092193" lon="7.120049112052464"><ele></ele><time>2015-8-25T4:30:2Z</time></trkpt>
<trkpt lat="46.72464244776291" lon="7.119329681797859"><ele></ele><time>2015-8-25T4:30:5Z</time></trkpt>
<trkpt lat="46.724381777687285" lon="7.11895885498041"><ele></ele><time>2015-8-25T4:30:8Z</time></trkpt>
<trkpt lat="46.72353915748647" lon="7.118227244943116"><ele></ele><time>2015-8-25T4:30:11Z</time></trkpt>
<trkpt lat="46.72195792286395" lon="7.117395018441578"><ele></ele><time>2015-8-25T4:30:14Z</time></trkpt>
<trkpt lat="46.721613007161835" lon="7.1173417776756605"><ele></ele><time>2015-8-25T4:30:17Z</time></trkpt>
<trkpt lat="46.721019052241026" lon="7.117810885143102"><ele></ele><time>2015-8-25T4:30:20Z</time></trkpt>
<trkpt lat="46.720826517918596" lon="7.117861000080907"><ele></ele><time>2015-8-25T4:30:23Z</time></trkpt>
<trkpt lat="46.72063834585403" lon="7.117748757939866"><ele></ele><time>2015-8-25T4:30:26Z</time></trkpt>
<trkpt lat="46.72013108429152" lon="7.117146579549904"><ele></ele><time>2015-8-25T4:30:29Z</time></trkpt>
<trkpt lat="46.7188260140884" lon="7.117233104941842"><ele></ele><time>2015-8-25T4:30:32Z</time></trkpt>
<trkpt lat="46.71855796843243" lon="7.116840652427303"><ele></ele><time>2015-8-25T4:30:35Z</time></trkpt>
<trkpt lat="46.71856946866103" lon="7.116086114849271"><ele></ele><time>2015-8-25T4:30:38Z</time></trkpt>
<trkpt lat="46.71883543916166" lon="7.1155746638261155"><ele></ele><time>2015-8-25T4:30:41Z</time></trkpt>
<trkpt lat="46.718950524455245" lon="7.115519516222112"><ele></ele><time>2015-8-25T4:30:44Z</time></trkpt>
<trkpt lat="46.71910224661082" lon="7.115118784805677"><ele></ele><time>2015-8-25T4:30:47Z</time></trkpt>
<trkpt lat="46.71855961119124" lon="7.114610146673826"><ele></ele><time>2015-8-25T4:30:50Z</time></trkpt>
<trkpt lat="46.71782963178123" lon="7.114439709391862"><ele></ele><time>2015-8-25T4:30:53Z</time></trkpt>
<trkpt lat="46.717762931667394" lon="7.1135459449585134"><ele></ele><time>2015-8-25T4:30:56Z</time></trkpt>
<trkpt lat="46.717869733422624" lon="7.112843882384027"><ele></ele><time>2015-8-25T4:30:59Z</time></trkpt>
<trkpt lat="46.718160014905365" lon="7.112184827331433"><ele></ele><time>2015-8-25T4:31:2Z</time></trkpt>
<trkpt lat="46.71870250590627" lon="7.111663079265863"><ele></ele><time>2015-8-25T4:31:5Z</time></trkpt>
<trkpt lat="46.7191748321033" lon="7.111494205735921"><ele></ele><time>2015-8-25T4:31:8Z</time></trkpt>
<trkpt lat="46.719575236011956" lon="7.111557339737061"><ele></ele><time>2015-8-25T4:31:11Z</time></trkpt>
<trkpt lat="46.71989600013902" lon="7.112123132257545"><ele></ele><time>2015-8-25T4:31:14Z</time></trkpt>
<trkpt lat="46.72022230569155" lon="7.112274943293081"><ele></ele><time>2015-8-25T4:31:17Z</time></trkpt>
<trkpt lat="46.720667807730486" lon="7.112192821133391"><ele></ele><time>2015-8-25T4:31:20Z</time></trkpt>
<trkpt lat="46.72149585754651" lon="7.11228975373567"><ele></ele><time>2015-8-25T4:31:23Z</time></trkpt>
<trkpt lat="46.72194815420077" lon="7.111975704903845"><ele></ele><time>2015-8-25T4:31:26Z</time></trkpt>
<trkpt lat="46.7221123641997" lon="7.1116317195256915"><ele></ele><time>2015-8-25T4:31:29Z</time></trkpt>
<trkpt lat="46.722239866851794" lon="7.111041640084535"><ele></ele><time>2015-8-25T4:31:32Z</time></trkpt>
<trkpt lat="46.72218790462528" lon="7.110784229762888"><ele></ele><time>2015-8-25T4:31:35Z</time></trkpt>
<trkpt lat="46.72175725632663" lon="7.110081891185833"><ele></ele><time>2015-8-25T4:31:38Z</time></trkpt>
<trkpt lat="46.72167578998656" lon="7.109810481744544"><ele></ele><time>2015-8-25T4:31:41Z</time></trkpt>
<trkpt lat="46.721697338672314" lon="7.109496497008475"><ele></ele><time>2015-8-25T4:31:44Z</time></trkpt>
<trkpt lat="46.72223581875326" lon="7.108428417054433"><ele></ele><time>2015-8-25T4:31:47Z</time></trkpt>
<trkpt lat="46.72225292620046" lon="7.108062129106608"><ele></ele><time>2015-8-25T4:31:50Z</time></trkpt>
<trkpt lat="46.72217330438511" lon="7.107769094464527"><ele></ele><time>2015-8-25T4:31:53Z</time></trkpt>
<trkpt lat="46.72122232163852" lon="7.106340440883718"><ele></ele><time>2015-8-25T4:31:56Z</time></trkpt>
<trkpt lat="46.72102133458718" lon="7.105814970744962"><ele></ele><time>2015-8-25T4:31:59Z</time></trkpt>
<trkpt lat="46.7205999263005" lon="7.104239239198109"><ele></ele><time>2015-8-25T4:32:2Z</time></trkpt>
<trkpt lat="46.72021681021738" lon="7.103249739021939"><ele></ele><time>2015-8-25T4:32:5Z</time></trkpt>
<trkpt lat="46.720003349753036" lon="7.102035444249728"><ele></ele><time>2015-8-25T4:32:8Z</time></trkpt>
<trkpt lat="46.71983453902865" lon="7.101966202030065"><ele></ele><time>2015-8-25T4:32:11Z</time></trkpt>
<trkpt lat="46.71935299173106" lon="7.102176230105325"><ele></ele><time>2015-8-25T4:32:14Z</time></trkpt>
<trkpt lat="46.71932960260907" lon="7.102330539694445"><ele></ele><time>2015-8-25T4:32:17Z</time></trkpt>
<trkpt lat="46.7187416906245" lon="7.102446350390428"><ele></ele><time>2015-8-25T4:32:20Z</time></trkpt>
<trkpt lat="46.71834876935796" lon="7.10138451394657"><ele></ele><time>2015-8-25T4:32:23Z</time></trkpt>
<trkpt lat="46.71722194628197" lon="7.099403652735706"><ele></ele><time>2015-8-25T4:32:26Z</time></trkpt>
<trkpt lat="46.7164591297112" lon="7.098355964538557"><ele></ele><time>2015-8-25T4:32:29Z</time></trkpt>
<trkpt lat="46.71650551027057" lon="7.098321229939126"><ele></ele><time>2015-8-25T4:32:32Z</time></trkpt>
<trkpt lat="46.71582592882336" lon="7.096677568960122"><ele></ele><time>2015-8-25T4:32:35Z</time></trkpt>
<trkpt lat="46.715574374808575" lon="7.093795270826592"><ele></ele><time>2015-8-25T4:32:38Z</time></trkpt>
</trkseg></trk></gpx>